<?xml version="1.0" encoding="UTF-8" standalone="no" ?>
<gpx xmlns="http://www.topografix.com/GPX/1/1" xmlns:xsi="http://www.w3.org/2001/XMLSchema-instance" xsi:schemaLocation="http://www.topografix.com/GPX/1/1 http://www.topografix.com/GPX/1/1/gpx.xsd" version="1.1" creator="VisuGPX - https://www.visugpx.com">
  <metadata>
    <name>Trans Aubrac 2022 4eme barriere 10.6km</name>
    <desc><![CDATA[Arrivée à cascade de lacessat
Km 87,2 avant 22h45
10,6 km en moins de 2 h00]]></desc>
  </metadata>
  <trk>
    <name><![CDATA[Trans Aubrac 2022 4eme barriere 10.6km_1]]></name>
    <trkseg>
      <trkpt lat="44.62637" lon="2.99522">
        <ele>1337</ele>
        <time>2000-01-01T17:11:53.000Z</time>
      </trkpt>
      <trkpt lat="44.62619" lon="2.99517">
        <ele>1337.2</ele>
        <time>2000-01-01T17:12:03.000Z</time>
      </trkpt>
      <trkpt lat="44.62599" lon="2.99517">
        <ele>1336</ele>
        <time>2000-01-01T17:12:13.000Z</time>
      </trkpt>
      <trkpt lat="44.62556" lon="2.99507">
        <ele>1334</ele>
        <time>2000-01-01T17:12:23.000Z</time>
      </trkpt>
      <trkpt lat="44.62511" lon="2.99501">
        <ele>1333</ele>
        <time>2000-01-01T17:12:33.000Z</time>
      </trkpt>
      <trkpt lat="44.62486" lon="2.99501">
        <ele>1332</ele>
        <time>2000-01-01T17:12:43.000Z</time>
      </trkpt>
      <trkpt lat="44.6247" lon="2.99504">
        <ele>1331.8</ele>
        <time>2000-01-01T17:12:53.000Z</time>
      </trkpt>
      <trkpt lat="44.62456" lon="2.99505">
        <ele>1330</ele>
        <time>2000-01-01T17:13:03.000Z</time>
      </trkpt>
      <trkpt lat="44.62444" lon="2.99502">
        <ele>1330</ele>
        <time>2000-01-01T17:13:13.000Z</time>
      </trkpt>
      <trkpt lat="44.62433" lon="2.99497">
        <ele>1328</ele>
        <time>2000-01-01T17:13:23.000Z</time>
      </trkpt>
      <trkpt lat="44.62428" lon="2.99499">
        <ele>1328.2</ele>
        <time>2000-01-01T17:13:33.000Z</time>
      </trkpt>
      <trkpt lat="44.62428" lon="2.99518">
        <ele>1328.2</ele>
        <time>2000-01-01T17:13:43.000Z</time>
      </trkpt>
      <trkpt lat="44.62426" lon="2.99533">
        <ele>1327</ele>
        <time>2000-01-01T17:13:53.000Z</time>
      </trkpt>
      <trkpt lat="44.62422" lon="2.99535">
        <ele>1327.6</ele>
        <time>2000-01-01T17:14:03.000Z</time>
      </trkpt>
      <trkpt lat="44.62413" lon="2.99534">
        <ele>1326.9</ele>
        <time>2000-01-01T17:14:13.000Z</time>
      </trkpt>
      <trkpt lat="44.62411" lon="2.99532">
        <ele>1326.8</ele>
        <time>2000-01-01T17:14:23.000Z</time>
      </trkpt>
      <trkpt lat="44.62408" lon="2.99526">
        <ele>1326</ele>
        <time>2000-01-01T17:14:33.000Z</time>
      </trkpt>
      <trkpt lat="44.62409" lon="2.99512">
        <ele>1326.6</ele>
        <time>2000-01-01T17:14:43.000Z</time>
      </trkpt>
      <trkpt lat="44.62407" lon="2.9949">
        <ele>1325</ele>
        <time>2000-01-01T17:14:53.000Z</time>
      </trkpt>
      <trkpt lat="44.624" lon="2.99469">
        <ele>1325.7</ele>
        <time>2000-01-01T17:15:03.000Z</time>
      </trkpt>
      <trkpt lat="44.62392" lon="2.99455">
        <ele>1324</ele>
        <time>2000-01-01T17:15:13.000Z</time>
      </trkpt>
      <trkpt lat="44.62391" lon="2.9945">
        <ele>1324.4</ele>
        <time>2000-01-01T17:15:23.000Z</time>
      </trkpt>
      <trkpt lat="44.62387" lon="2.99444">
        <ele>1323.8</ele>
        <time>2000-01-01T17:15:33.000Z</time>
      </trkpt>
      <trkpt lat="44.62381" lon="2.99426">
        <ele>1322</ele>
        <time>2000-01-01T17:15:43.000Z</time>
      </trkpt>
      <trkpt lat="44.62381" lon="2.99417">
        <ele>1323.1</ele>
        <time>2000-01-01T17:15:53.000Z</time>
      </trkpt>
      <trkpt lat="44.6238" lon="2.99403">
        <ele>1322.2</ele>
        <time>2000-01-01T17:16:03.000Z</time>
      </trkpt>
      <trkpt lat="44.62382" lon="2.99384">
        <ele>1320</ele>
        <time>2000-01-01T17:16:13.000Z</time>
      </trkpt>
      <trkpt lat="44.62384" lon="2.99355">
        <ele>1318</ele>
        <time>2000-01-01T17:16:23.000Z</time>
      </trkpt>
      <trkpt lat="44.62384" lon="2.9934">
        <ele>1318.3</ele>
        <time>2000-01-01T17:16:33.000Z</time>
      </trkpt>
      <trkpt lat="44.62386" lon="2.99329">
        <ele>1317.6</ele>
        <time>2000-01-01T17:16:43.000Z</time>
      </trkpt>
      <trkpt lat="44.62388" lon="2.99306">
        <ele>1314</ele>
        <time>2000-01-01T17:16:53.000Z</time>
      </trkpt>
      <trkpt lat="44.62392" lon="2.99285">
        <ele>1314</ele>
        <time>2000-01-01T17:17:03.000Z</time>
      </trkpt>
      <trkpt lat="44.62395" lon="2.99275">
        <ele>1312</ele>
        <time>2000-01-01T17:17:13.000Z</time>
      </trkpt>
      <trkpt lat="44.62402" lon="2.99237">
        <ele>1308</ele>
        <time>2000-01-01T17:17:23.000Z</time>
      </trkpt>
      <trkpt lat="44.62403" lon="2.99225">
        <ele>1308.8</ele>
        <time>2000-01-01T17:17:33.000Z</time>
      </trkpt>
      <trkpt lat="44.62405" lon="2.99216">
        <ele>1307.9</ele>
        <time>2000-01-01T17:17:43.000Z</time>
      </trkpt>
      <trkpt lat="44.62407" lon="2.99198">
        <ele>1305</ele>
        <time>2000-01-01T17:17:53.000Z</time>
      </trkpt>
      <trkpt lat="44.62409" lon="2.99189">
        <ele>1305.3</ele>
        <time>2000-01-01T17:18:03.000Z</time>
      </trkpt>
      <trkpt lat="44.62409" lon="2.99179">
        <ele>1304.6</ele>
        <time>2000-01-01T17:18:13.000Z</time>
      </trkpt>
      <trkpt lat="44.6241" lon="2.99171">
        <ele>1304</ele>
        <time>2000-01-01T17:18:23.000Z</time>
      </trkpt>
      <trkpt lat="44.62413" lon="2.99164">
        <ele>1303.8</ele>
        <time>2000-01-01T17:18:33.000Z</time>
      </trkpt>
      <trkpt lat="44.62413" lon="2.99152">
        <ele>1303.3</ele>
        <time>2000-01-01T17:18:43.000Z</time>
      </trkpt>
      <trkpt lat="44.62415" lon="2.99134">
        <ele>1302</ele>
        <time>2000-01-01T17:18:53.000Z</time>
      </trkpt>
      <trkpt lat="44.62415" lon="2.99116">
        <ele>1302.1</ele>
        <time>2000-01-01T17:19:03.000Z</time>
      </trkpt>
      <trkpt lat="44.62413" lon="2.99109">
        <ele>1301.6</ele>
        <time>2000-01-01T17:19:13.000Z</time>
      </trkpt>
      <trkpt lat="44.62413" lon="2.99078">
        <ele>1299</ele>
        <time>2000-01-01T17:19:23.000Z</time>
      </trkpt>
      <trkpt lat="44.62415" lon="2.99064">
        <ele>1299.2</ele>
        <time>2000-01-01T17:19:33.000Z</time>
      </trkpt>
      <trkpt lat="44.62415" lon="2.99046">
        <ele>1299</ele>
        <time>2000-01-01T17:19:43.000Z</time>
      </trkpt>
      <trkpt lat="44.62418" lon="2.99036">
        <ele>1299.2</ele>
        <time>2000-01-01T17:19:53.000Z</time>
      </trkpt>
      <trkpt lat="44.62418" lon="2.99025">
        <ele>1299</ele>
        <time>2000-01-01T17:20:03.000Z</time>
      </trkpt>
      <trkpt lat="44.62417" lon="2.99013">
        <ele>1298</ele>
        <time>2000-01-01T17:20:13.000Z</time>
      </trkpt>
      <trkpt lat="44.62415" lon="2.99001">
        <ele>1298</ele>
        <time>2000-01-01T17:20:23.000Z</time>
      </trkpt>
      <trkpt lat="44.62414" lon="2.98991">
        <ele>1298</ele>
        <time>2000-01-01T17:20:33.000Z</time>
      </trkpt>
      <trkpt lat="44.62406" lon="2.98979">
        <ele>1296</ele>
        <time>2000-01-01T17:20:43.000Z</time>
      </trkpt>
      <trkpt lat="44.62403" lon="2.9897">
        <ele>1297.5</ele>
        <time>2000-01-01T17:20:53.000Z</time>
      </trkpt>
      <trkpt lat="44.62399" lon="2.98964">
        <ele>1297.2</ele>
        <time>2000-01-01T17:21:03.000Z</time>
      </trkpt>
      <trkpt lat="44.62395" lon="2.98956">
        <ele>1296</ele>
        <time>2000-01-01T17:21:13.000Z</time>
      </trkpt>
      <trkpt lat="44.62381" lon="2.98934">
        <ele>1295</ele>
        <time>2000-01-01T17:21:23.000Z</time>
      </trkpt>
      <trkpt lat="44.62376" lon="2.98923">
        <ele>1295.6</ele>
        <time>2000-01-01T17:21:33.000Z</time>
      </trkpt>
      <trkpt lat="44.62374" lon="2.98915">
        <ele>1295.5</ele>
        <time>2000-01-01T17:21:43.000Z</time>
      </trkpt>
      <trkpt lat="44.62363" lon="2.98894">
        <ele>1295</ele>
        <time>2000-01-01T17:21:53.000Z</time>
      </trkpt>
      <trkpt lat="44.62359" lon="2.98882">
        <ele>1294.9</ele>
        <time>2000-01-01T17:22:03.000Z</time>
      </trkpt>
      <trkpt lat="44.62355" lon="2.98872">
        <ele>1294.8</ele>
        <time>2000-01-01T17:22:13.000Z</time>
      </trkpt>
      <trkpt lat="44.62347" lon="2.98855">
        <ele>1294</ele>
        <time>2000-01-01T17:22:23.000Z</time>
      </trkpt>
      <trkpt lat="44.62345" lon="2.98843">
        <ele>1294.8</ele>
        <time>2000-01-01T17:22:33.000Z</time>
      </trkpt>
      <trkpt lat="44.62338" lon="2.9883">
        <ele>1294</ele>
        <time>2000-01-01T17:22:43.000Z</time>
      </trkpt>
      <trkpt lat="44.62332" lon="2.98815">
        <ele>1294.9</ele>
        <time>2000-01-01T17:22:53.000Z</time>
      </trkpt>
      <trkpt lat="44.62328" lon="2.98795">
        <ele>1294</ele>
        <time>2000-01-01T17:23:03.000Z</time>
      </trkpt>
      <trkpt lat="44.6232" lon="2.98774">
        <ele>1295.2</ele>
        <time>2000-01-01T17:23:13.000Z</time>
      </trkpt>
      <trkpt lat="44.62318" lon="2.98767">
        <ele>1294</ele>
        <time>2000-01-01T17:23:23.000Z</time>
      </trkpt>
      <trkpt lat="44.62314" lon="2.98759">
        <ele>1295.3</ele>
        <time>2000-01-01T17:23:33.000Z</time>
      </trkpt>
      <trkpt lat="44.62309" lon="2.98751">
        <ele>1295.2</ele>
        <time>2000-01-01T17:23:43.000Z</time>
      </trkpt>
      <trkpt lat="44.62305" lon="2.98754">
        <ele>1294.9</ele>
        <time>2000-01-01T17:23:53.000Z</time>
      </trkpt>
      <trkpt lat="44.62302" lon="2.9876">
        <ele>1294</ele>
        <time>2000-01-01T17:24:03.000Z</time>
      </trkpt>
      <trkpt lat="44.62296" lon="2.98765">
        <ele>1294.6</ele>
        <time>2000-01-01T17:24:13.000Z</time>
      </trkpt>
      <trkpt lat="44.6229" lon="2.98769">
        <ele>1294.5</ele>
        <time>2000-01-01T17:24:23.000Z</time>
      </trkpt>
      <trkpt lat="44.62283" lon="2.98771">
        <ele>1294</ele>
        <time>2000-01-01T17:24:33.000Z</time>
      </trkpt>
      <trkpt lat="44.62277" lon="2.98774">
        <ele>1294.3</ele>
        <time>2000-01-01T17:24:43.000Z</time>
      </trkpt>
      <trkpt lat="44.62271" lon="2.98776">
        <ele>1294.4</ele>
        <time>2000-01-01T17:24:53.000Z</time>
      </trkpt>
      <trkpt lat="44.6226" lon="2.98785">
        <ele>1295</ele>
        <time>2000-01-01T17:25:03.000Z</time>
      </trkpt>
      <trkpt lat="44.62254" lon="2.98789">
        <ele>1294.1</ele>
        <time>2000-01-01T17:25:13.000Z</time>
      </trkpt>
      <trkpt lat="44.62249" lon="2.98794">
        <ele>1293.9</ele>
        <time>2000-01-01T17:25:23.000Z</time>
      </trkpt>
      <trkpt lat="44.62238" lon="2.98803">
        <ele>1295</ele>
        <time>2000-01-01T17:25:33.000Z</time>
      </trkpt>
      <trkpt lat="44.62232" lon="2.98807">
        <ele>1294.2</ele>
        <time>2000-01-01T17:25:43.000Z</time>
      </trkpt>
      <trkpt lat="44.62223" lon="2.98811">
        <ele>1294.4</ele>
        <time>2000-01-01T17:25:53.000Z</time>
      </trkpt>
      <trkpt lat="44.62216" lon="2.98812">
        <ele>1296</ele>
        <time>2000-01-01T17:26:03.000Z</time>
      </trkpt>
      <trkpt lat="44.62208" lon="2.98811">
        <ele>1295.9</ele>
        <time>2000-01-01T17:26:13.000Z</time>
      </trkpt>
      <trkpt lat="44.62201" lon="2.98808">
        <ele>1297</ele>
        <time>2000-01-01T17:26:23.000Z</time>
      </trkpt>
      <trkpt lat="44.62191" lon="2.98799">
        <ele>1298</ele>
        <time>2000-01-01T17:26:33.000Z</time>
      </trkpt>
      <trkpt lat="44.6218" lon="2.98791">
        <ele>1298</ele>
        <time>2000-01-01T17:26:43.000Z</time>
      </trkpt>
      <trkpt lat="44.62175" lon="2.98791">
        <ele>1297.8</ele>
        <time>2000-01-01T17:26:53.000Z</time>
      </trkpt>
      <trkpt lat="44.62169" lon="2.98778">
        <ele>1298</ele>
        <time>2000-01-01T17:27:03.000Z</time>
      </trkpt>
      <trkpt lat="44.62164" lon="2.98774">
        <ele>1298.1</ele>
        <time>2000-01-01T17:27:13.000Z</time>
      </trkpt>
      <trkpt lat="44.62161" lon="2.98768">
        <ele>1298.4</ele>
        <time>2000-01-01T17:27:23.000Z</time>
      </trkpt>
      <trkpt lat="44.62157" lon="2.98762">
        <ele>1298.8</ele>
        <time>2000-01-01T17:27:33.000Z</time>
      </trkpt>
      <trkpt lat="44.62156" lon="2.98751">
        <ele>1300</ele>
        <time>2000-01-01T17:27:43.000Z</time>
      </trkpt>
      <trkpt lat="44.62153" lon="2.98739">
        <ele>1300.6</ele>
        <time>2000-01-01T17:27:53.000Z</time>
      </trkpt>
      <trkpt lat="44.62155" lon="2.9873">
        <ele>1301</ele>
        <time>2000-01-01T17:28:03.000Z</time>
      </trkpt>
      <trkpt lat="44.62155" lon="2.98718">
        <ele>1302</ele>
        <time>2000-01-01T17:28:13.000Z</time>
      </trkpt>
      <trkpt lat="44.62149" lon="2.98707">
        <ele>1302.6</ele>
        <time>2000-01-01T17:28:23.000Z</time>
      </trkpt>
      <trkpt lat="44.62145" lon="2.98704">
        <ele>1302.7</ele>
        <time>2000-01-01T17:28:33.000Z</time>
      </trkpt>
      <trkpt lat="44.62141" lon="2.98708">
        <ele>1301</ele>
        <time>2000-01-01T17:28:43.000Z</time>
      </trkpt>
      <trkpt lat="44.62136" lon="2.98709">
        <ele>1302.3</ele>
        <time>2000-01-01T17:28:53.000Z</time>
      </trkpt>
      <trkpt lat="44.62127" lon="2.98708">
        <ele>1301.7</ele>
        <time>2000-01-01T17:29:03.000Z</time>
      </trkpt>
      <trkpt lat="44.62112" lon="2.9871">
        <ele>1300</ele>
        <time>2000-01-01T17:29:13.000Z</time>
      </trkpt>
      <trkpt lat="44.62082" lon="2.98711">
        <ele>1299</ele>
        <time>2000-01-01T17:29:23.000Z</time>
      </trkpt>
      <trkpt lat="44.62078" lon="2.98713">
        <ele>1298.6</ele>
        <time>2000-01-01T17:29:33.000Z</time>
      </trkpt>
      <trkpt lat="44.62051" lon="2.98712">
        <ele>1298</ele>
        <time>2000-01-01T17:29:43.000Z</time>
      </trkpt>
      <trkpt lat="44.62041" lon="2.98714">
        <ele>1298.3</ele>
        <time>2000-01-01T17:29:53.000Z</time>
      </trkpt>
      <trkpt lat="44.6204" lon="2.98715">
        <ele>1298.3</ele>
        <time>2000-01-01T17:30:03.000Z</time>
      </trkpt>
      <trkpt lat="44.62037" lon="2.98726">
        <ele>1298</ele>
        <time>2000-01-01T17:30:13.000Z</time>
      </trkpt>
      <trkpt lat="44.62025" lon="2.98756">
        <ele>1298</ele>
        <time>2000-01-01T17:30:23.000Z</time>
      </trkpt>
      <trkpt lat="44.62019" lon="2.98766">
        <ele>1297</ele>
        <time>2000-01-01T17:30:33.000Z</time>
      </trkpt>
      <trkpt lat="44.62007" lon="2.98776">
        <ele>1296</ele>
        <time>2000-01-01T17:30:43.000Z</time>
      </trkpt>
      <trkpt lat="44.61995" lon="2.98782">
        <ele>1294.2</ele>
        <time>2000-01-01T17:30:53.000Z</time>
      </trkpt>
      <trkpt lat="44.61984" lon="2.98791">
        <ele>1292</ele>
        <time>2000-01-01T17:31:03.000Z</time>
      </trkpt>
      <trkpt lat="44.61969" lon="2.98797">
        <ele>1291.1</ele>
        <time>2000-01-01T17:31:13.000Z</time>
      </trkpt>
      <trkpt lat="44.61933" lon="2.98816">
        <ele>1288</ele>
        <time>2000-01-01T17:31:23.000Z</time>
      </trkpt>
      <trkpt lat="44.61928" lon="2.98819">
        <ele>1288.1</ele>
        <time>2000-01-01T17:31:33.000Z</time>
      </trkpt>
      <trkpt lat="44.61918" lon="2.98827">
        <ele>1286.9</ele>
        <time>2000-01-01T17:31:43.000Z</time>
      </trkpt>
      <trkpt lat="44.61913" lon="2.98832">
        <ele>1286</ele>
        <time>2000-01-01T17:31:53.000Z</time>
      </trkpt>
      <trkpt lat="44.61905" lon="2.98844">
        <ele>1285.9</ele>
        <time>2000-01-01T17:32:03.000Z</time>
      </trkpt>
      <trkpt lat="44.619" lon="2.98855">
        <ele>1285</ele>
        <time>2000-01-01T17:32:13.000Z</time>
      </trkpt>
      <trkpt lat="44.61896" lon="2.98876">
        <ele>1283.7</ele>
        <time>2000-01-01T17:32:23.000Z</time>
      </trkpt>
      <trkpt lat="44.61892" lon="2.98889">
        <ele>1283</ele>
        <time>2000-01-01T17:32:33.000Z</time>
      </trkpt>
      <trkpt lat="44.6189" lon="2.98902">
        <ele>1282</ele>
        <time>2000-01-01T17:32:43.000Z</time>
      </trkpt>
      <trkpt lat="44.6189" lon="2.9892">
        <ele>1281</ele>
        <time>2000-01-01T17:32:53.000Z</time>
      </trkpt>
      <trkpt lat="44.61889" lon="2.98927">
        <ele>1280.3</ele>
        <time>2000-01-01T17:33:03.000Z</time>
      </trkpt>
      <trkpt lat="44.61889" lon="2.9894">
        <ele>1279.3</ele>
        <time>2000-01-01T17:33:13.000Z</time>
      </trkpt>
      <trkpt lat="44.61887" lon="2.98965">
        <ele>1277</ele>
        <time>2000-01-01T17:33:23.000Z</time>
      </trkpt>
      <trkpt lat="44.61884" lon="2.98979">
        <ele>1275.3</ele>
        <time>2000-01-01T17:33:33.000Z</time>
      </trkpt>
      <trkpt lat="44.61868" lon="2.9901">
        <ele>1272</ele>
        <time>2000-01-01T17:33:43.000Z</time>
      </trkpt>
      <trkpt lat="44.61851" lon="2.99032">
        <ele>1268</ele>
        <time>2000-01-01T17:33:53.000Z</time>
      </trkpt>
      <trkpt lat="44.61843" lon="2.99041">
        <ele>1267.9</ele>
        <time>2000-01-01T17:34:03.000Z</time>
      </trkpt>
      <trkpt lat="44.61834" lon="2.99049">
        <ele>1267</ele>
        <time>2000-01-01T17:34:13.000Z</time>
      </trkpt>
      <trkpt lat="44.61823" lon="2.99055">
        <ele>1266.1</ele>
        <time>2000-01-01T17:34:23.000Z</time>
      </trkpt>
      <trkpt lat="44.61794" lon="2.99075">
        <ele>1262</ele>
        <time>2000-01-01T17:34:33.000Z</time>
      </trkpt>
      <trkpt lat="44.6175" lon="2.99087">
        <ele>1257</ele>
        <time>2000-01-01T17:34:43.000Z</time>
      </trkpt>
      <trkpt lat="44.6174" lon="2.99089">
        <ele>1257.2</ele>
        <time>2000-01-01T17:34:53.000Z</time>
      </trkpt>
      <trkpt lat="44.61734" lon="2.99093">
        <ele>1256.1</ele>
        <time>2000-01-01T17:35:03.000Z</time>
      </trkpt>
      <trkpt lat="44.61725" lon="2.99107">
        <ele>1253</ele>
        <time>2000-01-01T17:35:13.000Z</time>
      </trkpt>
      <trkpt lat="44.61722" lon="2.99114">
        <ele>1252.7</ele>
        <time>2000-01-01T17:35:23.000Z</time>
      </trkpt>
      <trkpt lat="44.6171" lon="2.99129">
        <ele>1249</ele>
        <time>2000-01-01T17:35:33.000Z</time>
      </trkpt>
      <trkpt lat="44.61687" lon="2.99148">
        <ele>1245</ele>
        <time>2000-01-01T17:35:43.000Z</time>
      </trkpt>
      <trkpt lat="44.61673" lon="2.99157">
        <ele>1243.2</ele>
        <time>2000-01-01T17:35:53.000Z</time>
      </trkpt>
      <trkpt lat="44.61656" lon="2.99172">
        <ele>1240</ele>
        <time>2000-01-01T17:36:03.000Z</time>
      </trkpt>
      <trkpt lat="44.61647" lon="2.99177">
        <ele>1240.1</ele>
        <time>2000-01-01T17:36:13.000Z</time>
      </trkpt>
      <trkpt lat="44.61637" lon="2.99181">
        <ele>1238</ele>
        <time>2000-01-01T17:36:23.000Z</time>
      </trkpt>
      <trkpt lat="44.61625" lon="2.99188">
        <ele>1238.2</ele>
        <time>2000-01-01T17:36:33.000Z</time>
      </trkpt>
      <trkpt lat="44.61618" lon="2.99199">
        <ele>1236</ele>
        <time>2000-01-01T17:36:43.000Z</time>
      </trkpt>
      <trkpt lat="44.61608" lon="2.99219">
        <ele>1235.9</ele>
        <time>2000-01-01T17:36:53.000Z</time>
      </trkpt>
      <trkpt lat="44.61596" lon="2.99239">
        <ele>1235</ele>
        <time>2000-01-01T17:37:03.000Z</time>
      </trkpt>
      <trkpt lat="44.61583" lon="2.99246">
        <ele>1234.9</ele>
        <time>2000-01-01T17:37:13.000Z</time>
      </trkpt>
      <trkpt lat="44.61578" lon="2.99244">
        <ele>1235.4</ele>
        <time>2000-01-01T17:37:23.000Z</time>
      </trkpt>
      <trkpt lat="44.61578" lon="2.99238">
        <ele>1235</ele>
        <time>2000-01-01T17:37:33.000Z</time>
      </trkpt>
      <trkpt lat="44.61579" lon="2.99239">
        <ele>1235.1</ele>
        <time>2000-01-01T17:37:43.000Z</time>
      </trkpt>
      <trkpt lat="44.61576" lon="2.9924">
        <ele>1235.5</ele>
        <time>2000-01-01T17:37:53.000Z</time>
      </trkpt>
      <trkpt lat="44.61564" lon="2.99221">
        <ele>1237</ele>
        <time>2000-01-01T17:38:03.000Z</time>
      </trkpt>
      <trkpt lat="44.61538" lon="2.99188">
        <ele>1237</ele>
        <time>2000-01-01T17:38:13.000Z</time>
      </trkpt>
      <trkpt lat="44.61527" lon="2.9918">
        <ele>1236.5</ele>
        <time>2000-01-01T17:38:23.000Z</time>
      </trkpt>
      <trkpt lat="44.6151" lon="2.99174">
        <ele>1236</ele>
        <time>2000-01-01T17:38:33.000Z</time>
      </trkpt>
      <trkpt lat="44.61496" lon="2.99173">
        <ele>1235.9</ele>
        <time>2000-01-01T17:38:43.000Z</time>
      </trkpt>
      <trkpt lat="44.61488" lon="2.99176">
        <ele>1235</ele>
        <time>2000-01-01T17:38:53.000Z</time>
      </trkpt>
      <trkpt lat="44.61472" lon="2.99184">
        <ele>1235</ele>
        <time>2000-01-01T17:39:03.000Z</time>
      </trkpt>
      <trkpt lat="44.61459" lon="2.99188">
        <ele>1235</ele>
        <time>2000-01-01T17:39:13.000Z</time>
      </trkpt>
      <trkpt lat="44.6143" lon="2.99205">
        <ele>1236</ele>
        <time>2000-01-01T17:39:23.000Z</time>
      </trkpt>
      <trkpt lat="44.61418" lon="2.99206">
        <ele>1236.4</ele>
        <time>2000-01-01T17:39:33.000Z</time>
      </trkpt>
      <trkpt lat="44.61398" lon="2.99212">
        <ele>1236</ele>
        <time>2000-01-01T17:39:43.000Z</time>
      </trkpt>
      <trkpt lat="44.61383" lon="2.99206">
        <ele>1237.2</ele>
        <time>2000-01-01T17:39:53.000Z</time>
      </trkpt>
      <trkpt lat="44.61364" lon="2.99203">
        <ele>1237</ele>
        <time>2000-01-01T17:40:03.000Z</time>
      </trkpt>
      <trkpt lat="44.61355" lon="2.99203">
        <ele>1238.2</ele>
        <time>2000-01-01T17:40:13.000Z</time>
      </trkpt>
      <trkpt lat="44.61338" lon="2.99204">
        <ele>1237</ele>
        <time>2000-01-01T17:40:23.000Z</time>
      </trkpt>
      <trkpt lat="44.61307" lon="2.99215">
        <ele>1235</ele>
        <time>2000-01-01T17:40:33.000Z</time>
      </trkpt>
      <trkpt lat="44.61275" lon="2.99212">
        <ele>1235</ele>
        <time>2000-01-01T17:40:43.000Z</time>
      </trkpt>
      <trkpt lat="44.61259" lon="2.99215">
        <ele>1235.3</ele>
        <time>2000-01-01T17:40:53.000Z</time>
      </trkpt>
      <trkpt lat="44.61244" lon="2.99221">
        <ele>1235</ele>
        <time>2000-01-01T17:41:03.000Z</time>
      </trkpt>
      <trkpt lat="44.61238" lon="2.9922">
        <ele>1235.2</ele>
        <time>2000-01-01T17:41:13.000Z</time>
      </trkpt>
      <trkpt lat="44.61231" lon="2.99227">
        <ele>1236.1</ele>
        <time>2000-01-01T17:41:23.000Z</time>
      </trkpt>
      <trkpt lat="44.61215" lon="2.99235">
        <ele>1235</ele>
        <time>2000-01-01T17:41:33.000Z</time>
      </trkpt>
      <trkpt lat="44.6121" lon="2.99239">
        <ele>1237.3</ele>
        <time>2000-01-01T17:41:43.000Z</time>
      </trkpt>
      <trkpt lat="44.61198" lon="2.9924">
        <ele>1236.8</ele>
        <time>2000-01-01T17:41:53.000Z</time>
      </trkpt>
      <trkpt lat="44.61187" lon="2.99243">
        <ele>1235</ele>
        <time>2000-01-01T17:42:03.000Z</time>
      </trkpt>
      <trkpt lat="44.61162" lon="2.99256">
        <ele>1234</ele>
        <time>2000-01-01T17:42:13.000Z</time>
      </trkpt>
      <trkpt lat="44.61151" lon="2.99266">
        <ele>1235</ele>
        <time>2000-01-01T17:42:23.000Z</time>
      </trkpt>
      <trkpt lat="44.6112" lon="2.99278">
        <ele>1229</ele>
        <time>2000-01-01T17:42:33.000Z</time>
      </trkpt>
      <trkpt lat="44.61107" lon="2.9928">
        <ele>1231.3</ele>
        <time>2000-01-01T17:42:43.000Z</time>
      </trkpt>
      <trkpt lat="44.61096" lon="2.99287">
        <ele>1227</ele>
        <time>2000-01-01T17:42:53.000Z</time>
      </trkpt>
      <trkpt lat="44.61088" lon="2.99296">
        <ele>1228.3</ele>
        <time>2000-01-01T17:43:03.000Z</time>
      </trkpt>
      <trkpt lat="44.61082" lon="2.99304">
        <ele>1227.4</ele>
        <time>2000-01-01T17:43:13.000Z</time>
      </trkpt>
      <trkpt lat="44.61076" lon="2.99316">
        <ele>1224</ele>
        <time>2000-01-01T17:43:23.000Z</time>
      </trkpt>
      <trkpt lat="44.61064" lon="2.9933">
        <ele>1223.9</ele>
        <time>2000-01-01T17:43:33.000Z</time>
      </trkpt>
      <trkpt lat="44.61058" lon="2.99343">
        <ele>1218</ele>
        <time>2000-01-01T17:43:43.000Z</time>
      </trkpt>
      <trkpt lat="44.61055" lon="2.99353">
        <ele>1222.9</ele>
        <time>2000-01-01T17:43:53.000Z</time>
      </trkpt>
      <trkpt lat="44.61044" lon="2.99368">
        <ele>1217</ele>
        <time>2000-01-01T17:44:03.000Z</time>
      </trkpt>
      <trkpt lat="44.61034" lon="2.99374">
        <ele>1217.6</ele>
        <time>2000-01-01T17:44:13.000Z</time>
      </trkpt>
      <trkpt lat="44.61023" lon="2.9939">
        <ele>1212</ele>
        <time>2000-01-01T17:44:23.000Z</time>
      </trkpt>
      <trkpt lat="44.61007" lon="2.99407">
        <ele>1210</ele>
        <time>2000-01-01T17:44:33.000Z</time>
      </trkpt>
      <trkpt lat="44.60997" lon="2.99415">
        <ele>1211.9</ele>
        <time>2000-01-01T17:44:43.000Z</time>
      </trkpt>
      <trkpt lat="44.60986" lon="2.99434">
        <ele>1209</ele>
        <time>2000-01-01T17:44:53.000Z</time>
      </trkpt>
      <trkpt lat="44.60974" lon="2.99443">
        <ele>1210.2</ele>
        <time>2000-01-01T17:45:03.000Z</time>
      </trkpt>
      <trkpt lat="44.60963" lon="2.99458">
        <ele>1207</ele>
        <time>2000-01-01T17:45:13.000Z</time>
      </trkpt>
      <trkpt lat="44.6095" lon="2.99464">
        <ele>1207.9</ele>
        <time>2000-01-01T17:45:23.000Z</time>
      </trkpt>
      <trkpt lat="44.60946" lon="2.99471">
        <ele>1206</ele>
        <time>2000-01-01T17:45:33.000Z</time>
      </trkpt>
      <trkpt lat="44.60942" lon="2.99474">
        <ele>1207.7</ele>
        <time>2000-01-01T17:45:43.000Z</time>
      </trkpt>
      <trkpt lat="44.60935" lon="2.99484">
        <ele>1207.6</ele>
        <time>2000-01-01T17:45:53.000Z</time>
      </trkpt>
      <trkpt lat="44.60926" lon="2.99493">
        <ele>1204</ele>
        <time>2000-01-01T17:46:03.000Z</time>
      </trkpt>
      <trkpt lat="44.60915" lon="2.99506">
        <ele>1205.7</ele>
        <time>2000-01-01T17:46:13.000Z</time>
      </trkpt>
      <trkpt lat="44.60901" lon="2.99525">
        <ele>1204</ele>
        <time>2000-01-01T17:46:23.000Z</time>
      </trkpt>
      <trkpt lat="44.60899" lon="2.99529">
        <ele>1205.7</ele>
        <time>2000-01-01T17:46:33.000Z</time>
      </trkpt>
      <trkpt lat="44.60891" lon="2.99541">
        <ele>1205.4</ele>
        <time>2000-01-01T17:46:43.000Z</time>
      </trkpt>
      <trkpt lat="44.60877" lon="2.99555">
        <ele>1202</ele>
        <time>2000-01-01T17:46:53.000Z</time>
      </trkpt>
      <trkpt lat="44.60871" lon="2.99563">
        <ele>1204.5</ele>
        <time>2000-01-01T17:47:03.000Z</time>
      </trkpt>
      <trkpt lat="44.60866" lon="2.99567">
        <ele>1204.1</ele>
        <time>2000-01-01T17:47:13.000Z</time>
      </trkpt>
      <trkpt lat="44.60858" lon="2.99578">
        <ele>1201</ele>
        <time>2000-01-01T17:47:23.000Z</time>
      </trkpt>
      <trkpt lat="44.60852" lon="2.99582">
        <ele>1204.1</ele>
        <time>2000-01-01T17:47:33.000Z</time>
      </trkpt>
      <trkpt lat="44.6084" lon="2.996">
        <ele>1201</ele>
        <time>2000-01-01T17:47:43.000Z</time>
      </trkpt>
      <trkpt lat="44.6084" lon="2.99603">
        <ele>1205</ele>
        <time>2000-01-01T17:47:53.000Z</time>
      </trkpt>
      <trkpt lat="44.60836" lon="2.99608">
        <ele>1205</ele>
        <time>2000-01-01T17:48:03.000Z</time>
      </trkpt>
      <trkpt lat="44.60828" lon="2.99607">
        <ele>1203.7</ele>
        <time>2000-01-01T17:48:13.000Z</time>
      </trkpt>
      <trkpt lat="44.60826" lon="2.99608">
        <ele>1203.5</ele>
        <time>2000-01-01T17:48:23.000Z</time>
      </trkpt>
      <trkpt lat="44.60822" lon="2.99614">
        <ele>1200</ele>
        <time>2000-01-01T17:48:33.000Z</time>
      </trkpt>
      <trkpt lat="44.60797" lon="2.99624">
        <ele>1200</ele>
        <time>2000-01-01T17:48:43.000Z</time>
      </trkpt>
      <trkpt lat="44.60783" lon="2.99645">
        <ele>1201</ele>
        <time>2000-01-01T17:48:53.000Z</time>
      </trkpt>
      <trkpt lat="44.60774" lon="2.99651">
        <ele>1202.1</ele>
        <time>2000-01-01T17:49:03.000Z</time>
      </trkpt>
      <trkpt lat="44.60767" lon="2.99664">
        <ele>1201</ele>
        <time>2000-01-01T17:49:13.000Z</time>
      </trkpt>
      <trkpt lat="44.60756" lon="2.99682">
        <ele>1202.8</ele>
        <time>2000-01-01T17:49:23.000Z</time>
      </trkpt>
      <trkpt lat="44.60735" lon="2.99704">
        <ele>1201</ele>
        <time>2000-01-01T17:49:33.000Z</time>
      </trkpt>
      <trkpt lat="44.60732" lon="2.99705">
        <ele>1202.5</ele>
        <time>2000-01-01T17:49:43.000Z</time>
      </trkpt>
      <trkpt lat="44.60725" lon="2.99712">
        <ele>1202.5</ele>
        <time>2000-01-01T17:49:53.000Z</time>
      </trkpt>
      <trkpt lat="44.60723" lon="2.99716">
        <ele>1202.6</ele>
        <time>2000-01-01T17:50:03.000Z</time>
      </trkpt>
      <trkpt lat="44.60722" lon="2.9972">
        <ele>1202.8</ele>
        <time>2000-01-01T17:50:13.000Z</time>
      </trkpt>
      <trkpt lat="44.60722" lon="2.99719">
        <ele>1202.8</ele>
        <time>2000-01-01T17:50:23.000Z</time>
      </trkpt>
      <trkpt lat="44.60723" lon="2.99719">
        <ele>1201</ele>
        <time>2000-01-01T17:50:33.000Z</time>
      </trkpt>
      <trkpt lat="44.60723" lon="2.99721">
        <ele>1203</ele>
        <time>2000-01-01T17:50:43.000Z</time>
      </trkpt>
      <trkpt lat="44.60717" lon="2.99728">
        <ele>1203.4</ele>
        <time>2000-01-01T17:50:53.000Z</time>
      </trkpt>
      <trkpt lat="44.60716" lon="2.99733">
        <ele>1203.7</ele>
        <time>2000-01-01T17:51:03.000Z</time>
      </trkpt>
      <trkpt lat="44.60715" lon="2.99746">
        <ele>1203</ele>
        <time>2000-01-01T17:51:13.000Z</time>
      </trkpt>
      <trkpt lat="44.60714" lon="2.99749">
        <ele>1204.6</ele>
        <time>2000-01-01T17:51:23.000Z</time>
      </trkpt>
      <trkpt lat="44.60708" lon="2.99763">
        <ele>1205.4</ele>
        <time>2000-01-01T17:51:33.000Z</time>
      </trkpt>
      <trkpt lat="44.60699" lon="2.99776">
        <ele>1205</ele>
        <time>2000-01-01T17:51:43.000Z</time>
      </trkpt>
      <trkpt lat="44.60698" lon="2.99779">
        <ele>1206.2</ele>
        <time>2000-01-01T17:51:53.000Z</time>
      </trkpt>
      <trkpt lat="44.60696" lon="2.99789">
        <ele>1206.5</ele>
        <time>2000-01-01T17:52:03.000Z</time>
      </trkpt>
      <trkpt lat="44.60695" lon="2.99799">
        <ele>1206.8</ele>
        <time>2000-01-01T17:52:13.000Z</time>
      </trkpt>
      <trkpt lat="44.60691" lon="2.99822">
        <ele>1208</ele>
        <time>2000-01-01T17:52:23.000Z</time>
      </trkpt>
      <trkpt lat="44.60686" lon="2.99841">
        <ele>1208.9</ele>
        <time>2000-01-01T17:52:33.000Z</time>
      </trkpt>
      <trkpt lat="44.60679" lon="2.99879">
        <ele>1208</ele>
        <time>2000-01-01T17:52:43.000Z</time>
      </trkpt>
      <trkpt lat="44.60675" lon="2.99886">
        <ele>1209.2</ele>
        <time>2000-01-01T17:52:53.000Z</time>
      </trkpt>
      <trkpt lat="44.60671" lon="2.99891">
        <ele>1209.2</ele>
        <time>2000-01-01T17:53:03.000Z</time>
      </trkpt>
      <trkpt lat="44.60662" lon="2.99899">
        <ele>1208</ele>
        <time>2000-01-01T17:53:13.000Z</time>
      </trkpt>
      <trkpt lat="44.60652" lon="2.99902">
        <ele>1209.5</ele>
        <time>2000-01-01T17:53:23.000Z</time>
      </trkpt>
      <trkpt lat="44.60643" lon="2.99908">
        <ele>1209</ele>
        <time>2000-01-01T17:53:33.000Z</time>
      </trkpt>
      <trkpt lat="44.6063" lon="2.99912">
        <ele>1211.1</ele>
        <time>2000-01-01T17:53:43.000Z</time>
      </trkpt>
      <trkpt lat="44.6062" lon="2.99916">
        <ele>1212</ele>
        <time>2000-01-01T17:53:53.000Z</time>
      </trkpt>
      <trkpt lat="44.60603" lon="2.99925">
        <ele>1213.1</ele>
        <time>2000-01-01T17:54:03.000Z</time>
      </trkpt>
      <trkpt lat="44.60592" lon="2.99928">
        <ele>1214</ele>
        <time>2000-01-01T17:54:13.000Z</time>
      </trkpt>
      <trkpt lat="44.60582" lon="2.99932">
        <ele>1215.2</ele>
        <time>2000-01-01T17:54:23.000Z</time>
      </trkpt>
      <trkpt lat="44.60573" lon="2.99934">
        <ele>1216</ele>
        <time>2000-01-01T17:54:33.000Z</time>
      </trkpt>
      <trkpt lat="44.60564" lon="2.99935">
        <ele>1217.5</ele>
        <time>2000-01-01T17:54:43.000Z</time>
      </trkpt>
      <trkpt lat="44.60556" lon="2.99939">
        <ele>1218.7</ele>
        <time>2000-01-01T17:54:53.000Z</time>
      </trkpt>
      <trkpt lat="44.6055" lon="2.99941">
        <ele>1220</ele>
        <time>2000-01-01T17:55:03.000Z</time>
      </trkpt>
      <trkpt lat="44.60544" lon="2.99942">
        <ele>1220.5</ele>
        <time>2000-01-01T17:55:13.000Z</time>
      </trkpt>
      <trkpt lat="44.60537" lon="2.9994">
        <ele>1221.4</ele>
        <time>2000-01-01T17:55:23.000Z</time>
      </trkpt>
      <trkpt lat="44.60527" lon="2.9994">
        <ele>1222</ele>
        <time>2000-01-01T17:55:33.000Z</time>
      </trkpt>
      <trkpt lat="44.60518" lon="2.99938">
        <ele>1224.2</ele>
        <time>2000-01-01T17:55:43.000Z</time>
      </trkpt>
      <trkpt lat="44.60507" lon="2.99939">
        <ele>1226</ele>
        <time>2000-01-01T17:55:53.000Z</time>
      </trkpt>
      <trkpt lat="44.60499" lon="2.99941">
        <ele>1227.8</ele>
        <time>2000-01-01T17:56:03.000Z</time>
      </trkpt>
      <trkpt lat="44.60487" lon="2.99961">
        <ele>1232</ele>
        <time>2000-01-01T17:56:13.000Z</time>
      </trkpt>
      <trkpt lat="44.60481" lon="2.99967">
        <ele>1233.7</ele>
        <time>2000-01-01T17:56:23.000Z</time>
      </trkpt>
      <trkpt lat="44.60458" lon="2.99983">
        <ele>1236</ele>
        <time>2000-01-01T17:56:33.000Z</time>
      </trkpt>
      <trkpt lat="44.60449" lon="2.9999">
        <ele>1237.3</ele>
        <time>2000-01-01T17:56:43.000Z</time>
      </trkpt>
      <trkpt lat="44.60439" lon="3.00001">
        <ele>1237</ele>
        <time>2000-01-01T17:56:53.000Z</time>
      </trkpt>
      <trkpt lat="44.60428" lon="3.00009">
        <ele>1239</ele>
        <time>2000-01-01T17:57:03.000Z</time>
      </trkpt>
      <trkpt lat="44.60408" lon="3.00029">
        <ele>1241</ele>
        <time>2000-01-01T17:57:13.000Z</time>
      </trkpt>
      <trkpt lat="44.604" lon="3.00042">
        <ele>1244.9</ele>
        <time>2000-01-01T17:57:23.000Z</time>
      </trkpt>
      <trkpt lat="44.60391" lon="3.00053">
        <ele>1246</ele>
        <time>2000-01-01T17:57:33.000Z</time>
      </trkpt>
      <trkpt lat="44.60378" lon="3.00064">
        <ele>1247.9</ele>
        <time>2000-01-01T17:57:43.000Z</time>
      </trkpt>
      <trkpt lat="44.60366" lon="3.00072">
        <ele>1248</ele>
        <time>2000-01-01T17:57:53.000Z</time>
      </trkpt>
      <trkpt lat="44.60352" lon="3.0008">
        <ele>1249.6</ele>
        <time>2000-01-01T17:58:03.000Z</time>
      </trkpt>
      <trkpt lat="44.60338" lon="3.00081">
        <ele>1247</ele>
        <time>2000-01-01T17:58:13.000Z</time>
      </trkpt>
      <trkpt lat="44.60324" lon="3.00084">
        <ele>1249</ele>
        <time>2000-01-01T17:58:23.000Z</time>
      </trkpt>
      <trkpt lat="44.60313" lon="3.0009">
        <ele>1247</ele>
        <time>2000-01-01T17:58:33.000Z</time>
      </trkpt>
      <trkpt lat="44.60295" lon="3.00103">
        <ele>1247</ele>
        <time>2000-01-01T17:58:43.000Z</time>
      </trkpt>
      <trkpt lat="44.60283" lon="3.00119">
        <ele>1247.6</ele>
        <time>2000-01-01T17:58:53.000Z</time>
      </trkpt>
      <trkpt lat="44.60272" lon="3.00136">
        <ele>1247</ele>
        <time>2000-01-01T17:59:03.000Z</time>
      </trkpt>
      <trkpt lat="44.60266" lon="3.00154">
        <ele>1248.5</ele>
        <time>2000-01-01T17:59:13.000Z</time>
      </trkpt>
      <trkpt lat="44.60266" lon="3.00173">
        <ele>1249</ele>
        <time>2000-01-01T17:59:23.000Z</time>
      </trkpt>
      <trkpt lat="44.60268" lon="3.00188">
        <ele>1250.5</ele>
        <time>2000-01-01T17:59:33.000Z</time>
      </trkpt>
      <trkpt lat="44.60264" lon="3.0021">
        <ele>1251</ele>
        <time>2000-01-01T17:59:43.000Z</time>
      </trkpt>
      <trkpt lat="44.60259" lon="3.00231">
        <ele>1253.5</ele>
        <time>2000-01-01T17:59:53.000Z</time>
      </trkpt>
      <trkpt lat="44.60257" lon="3.00253">
        <ele>1254</ele>
        <time>2000-01-01T18:00:03.000Z</time>
      </trkpt>
      <trkpt lat="44.60258" lon="3.00267">
        <ele>1255.4</ele>
        <time>2000-01-01T18:00:13.000Z</time>
      </trkpt>
      <trkpt lat="44.60253" lon="3.00288">
        <ele>1255</ele>
        <time>2000-01-01T18:00:23.000Z</time>
      </trkpt>
      <trkpt lat="44.60251" lon="3.00304">
        <ele>1257</ele>
        <time>2000-01-01T18:00:33.000Z</time>
      </trkpt>
      <trkpt lat="44.6025" lon="3.00322">
        <ele>1256</ele>
        <time>2000-01-01T18:00:43.000Z</time>
      </trkpt>
      <trkpt lat="44.60251" lon="3.00335">
        <ele>1258.2</ele>
        <time>2000-01-01T18:00:53.000Z</time>
      </trkpt>
      <trkpt lat="44.60249" lon="3.00379">
        <ele>1258</ele>
        <time>2000-01-01T18:01:03.000Z</time>
      </trkpt>
      <trkpt lat="44.60253" lon="3.00418">
        <ele>1262</ele>
        <time>2000-01-01T18:01:13.000Z</time>
      </trkpt>
      <trkpt lat="44.60256" lon="3.00467">
        <ele>1263</ele>
        <time>2000-01-01T18:01:23.000Z</time>
      </trkpt>
      <trkpt lat="44.60258" lon="3.00483">
        <ele>1267.8</ele>
        <time>2000-01-01T18:01:33.000Z</time>
      </trkpt>
      <trkpt lat="44.60256" lon="3.005">
        <ele>1264</ele>
        <time>2000-01-01T18:01:43.000Z</time>
      </trkpt>
      <trkpt lat="44.60257" lon="3.00519">
        <ele>1270.9</ele>
        <time>2000-01-01T18:01:53.000Z</time>
      </trkpt>
      <trkpt lat="44.60257" lon="3.00538">
        <ele>1270</ele>
        <time>2000-01-01T18:02:03.000Z</time>
      </trkpt>
      <trkpt lat="44.60255" lon="3.00572">
        <ele>1274</ele>
        <time>2000-01-01T18:02:13.000Z</time>
      </trkpt>
      <trkpt lat="44.60253" lon="3.00608">
        <ele>1278</ele>
        <time>2000-01-01T18:02:23.000Z</time>
      </trkpt>
      <trkpt lat="44.60255" lon="3.00628">
        <ele>1279.6</ele>
        <time>2000-01-01T18:02:33.000Z</time>
      </trkpt>
      <trkpt lat="44.60259" lon="3.00654">
        <ele>1279</ele>
        <time>2000-01-01T18:02:43.000Z</time>
      </trkpt>
      <trkpt lat="44.60262" lon="3.00668">
        <ele>1280.7</ele>
        <time>2000-01-01T18:02:53.000Z</time>
      </trkpt>
      <trkpt lat="44.60271" lon="3.007">
        <ele>1282</ele>
        <time>2000-01-01T18:03:03.000Z</time>
      </trkpt>
      <trkpt lat="44.60278" lon="3.00712">
        <ele>1283.4</ele>
        <time>2000-01-01T18:03:13.000Z</time>
      </trkpt>
      <trkpt lat="44.60284" lon="3.00726">
        <ele>1282</ele>
        <time>2000-01-01T18:03:23.000Z</time>
      </trkpt>
      <trkpt lat="44.6029" lon="3.0076">
        <ele>1282</ele>
        <time>2000-01-01T18:03:33.000Z</time>
      </trkpt>
      <trkpt lat="44.60296" lon="3.00776">
        <ele>1285</ele>
        <time>2000-01-01T18:03:43.000Z</time>
      </trkpt>
      <trkpt lat="44.60301" lon="3.00793">
        <ele>1285</ele>
        <time>2000-01-01T18:03:53.000Z</time>
      </trkpt>
      <trkpt lat="44.60311" lon="3.00804">
        <ele>1286.5</ele>
        <time>2000-01-01T18:04:03.000Z</time>
      </trkpt>
      <trkpt lat="44.60317" lon="3.00815">
        <ele>1285</ele>
        <time>2000-01-01T18:04:13.000Z</time>
      </trkpt>
      <trkpt lat="44.60326" lon="3.00827">
        <ele>1285.9</ele>
        <time>2000-01-01T18:04:23.000Z</time>
      </trkpt>
      <trkpt lat="44.60339" lon="3.00837">
        <ele>1284</ele>
        <time>2000-01-01T18:04:33.000Z</time>
      </trkpt>
      <trkpt lat="44.60342" lon="3.0085">
        <ele>1284.7</ele>
        <time>2000-01-01T18:04:43.000Z</time>
      </trkpt>
      <trkpt lat="44.60353" lon="3.00861">
        <ele>1284</ele>
        <time>2000-01-01T18:04:53.000Z</time>
      </trkpt>
      <trkpt lat="44.60365" lon="3.00879">
        <ele>1284</ele>
        <time>2000-01-01T18:05:03.000Z</time>
      </trkpt>
      <trkpt lat="44.60376" lon="3.00902">
        <ele>1285</ele>
        <time>2000-01-01T18:05:13.000Z</time>
      </trkpt>
      <trkpt lat="44.60386" lon="3.0092">
        <ele>1286.5</ele>
        <time>2000-01-01T18:05:23.000Z</time>
      </trkpt>
      <trkpt lat="44.60391" lon="3.00933">
        <ele>1287</ele>
        <time>2000-01-01T18:05:33.000Z</time>
      </trkpt>
      <trkpt lat="44.60398" lon="3.00944">
        <ele>1288.6</ele>
        <time>2000-01-01T18:05:43.000Z</time>
      </trkpt>
      <trkpt lat="44.60413" lon="3.00973">
        <ele>1288</ele>
        <time>2000-01-01T18:05:53.000Z</time>
      </trkpt>
      <trkpt lat="44.60416" lon="3.00982">
        <ele>1290.2</ele>
        <time>2000-01-01T18:06:03.000Z</time>
      </trkpt>
      <trkpt lat="44.60421" lon="3.00991">
        <ele>1289.7</ele>
        <time>2000-01-01T18:06:13.000Z</time>
      </trkpt>
      <trkpt lat="44.60432" lon="3.01006">
        <ele>1289</ele>
        <time>2000-01-01T18:06:23.000Z</time>
      </trkpt>
      <trkpt lat="44.60439" lon="3.01018">
        <ele>1291.4</ele>
        <time>2000-01-01T18:06:33.000Z</time>
      </trkpt>
      <trkpt lat="44.60441" lon="3.01032">
        <ele>1292</ele>
        <time>2000-01-01T18:06:43.000Z</time>
      </trkpt>
      <trkpt lat="44.6045" lon="3.01043">
        <ele>1293.5</ele>
        <time>2000-01-01T18:06:53.000Z</time>
      </trkpt>
      <trkpt lat="44.60454" lon="3.01056">
        <ele>1294</ele>
        <time>2000-01-01T18:07:03.000Z</time>
      </trkpt>
      <trkpt lat="44.60462" lon="3.01068">
        <ele>1294.3</ele>
        <time>2000-01-01T18:07:13.000Z</time>
      </trkpt>
      <trkpt lat="44.60453" lon="3.01091">
        <ele>1294</ele>
        <time>2000-01-01T18:07:23.000Z</time>
      </trkpt>
      <trkpt lat="44.60447" lon="3.011">
        <ele>1294.7</ele>
        <time>2000-01-01T18:07:33.000Z</time>
      </trkpt>
      <trkpt lat="44.60438" lon="3.01111">
        <ele>1293</ele>
        <time>2000-01-01T18:07:43.000Z</time>
      </trkpt>
      <trkpt lat="44.60437" lon="3.01114">
        <ele>1293.9</ele>
        <time>2000-01-01T18:07:53.000Z</time>
      </trkpt>
      <trkpt lat="44.60428" lon="3.01126">
        <ele>1292.3</ele>
        <time>2000-01-01T18:08:03.000Z</time>
      </trkpt>
      <trkpt lat="44.60419" lon="3.01134">
        <ele>1291</ele>
        <time>2000-01-01T18:08:13.000Z</time>
      </trkpt>
      <trkpt lat="44.60419" lon="3.01141">
        <ele>1290.3</ele>
        <time>2000-01-01T18:08:23.000Z</time>
      </trkpt>
      <trkpt lat="44.60423" lon="3.01151">
        <ele>1290.7</ele>
        <time>2000-01-01T18:08:33.000Z</time>
      </trkpt>
      <trkpt lat="44.60425" lon="3.01167">
        <ele>1290</ele>
        <time>2000-01-01T18:08:43.000Z</time>
      </trkpt>
      <trkpt lat="44.60427" lon="3.01175">
        <ele>1291.2</ele>
        <time>2000-01-01T18:08:53.000Z</time>
      </trkpt>
      <trkpt lat="44.60427" lon="3.01183">
        <ele>1291.4</ele>
        <time>2000-01-01T18:09:03.000Z</time>
      </trkpt>
      <trkpt lat="44.60428" lon="3.01199">
        <ele>1290</ele>
        <time>2000-01-01T18:09:13.000Z</time>
      </trkpt>
      <trkpt lat="44.6043" lon="3.01204">
        <ele>1292.9</ele>
        <time>2000-01-01T18:09:23.000Z</time>
      </trkpt>
      <trkpt lat="44.60432" lon="3.01213">
        <ele>1293.7</ele>
        <time>2000-01-01T18:09:33.000Z</time>
      </trkpt>
      <trkpt lat="44.60431" lon="3.01222">
        <ele>1294.1</ele>
        <time>2000-01-01T18:09:43.000Z</time>
      </trkpt>
      <trkpt lat="44.60432" lon="3.01233">
        <ele>1294</ele>
        <time>2000-01-01T18:09:53.000Z</time>
      </trkpt>
      <trkpt lat="44.60432" lon="3.0125">
        <ele>1295.2</ele>
        <time>2000-01-01T18:10:03.000Z</time>
      </trkpt>
      <trkpt lat="44.60429" lon="3.01261">
        <ele>1294</ele>
        <time>2000-01-01T18:10:13.000Z</time>
      </trkpt>
      <trkpt lat="44.60426" lon="3.01284">
        <ele>1296.2</ele>
        <time>2000-01-01T18:10:23.000Z</time>
      </trkpt>
      <trkpt lat="44.60419" lon="3.01306">
        <ele>1294</ele>
        <time>2000-01-01T18:10:33.000Z</time>
      </trkpt>
      <trkpt lat="44.60415" lon="3.01314">
        <ele>1296.3</ele>
        <time>2000-01-01T18:10:43.000Z</time>
      </trkpt>
      <trkpt lat="44.60413" lon="3.01316">
        <ele>1296.1</ele>
        <time>2000-01-01T18:10:53.000Z</time>
      </trkpt>
      <trkpt lat="44.60403" lon="3.01337">
        <ele>1294</ele>
        <time>2000-01-01T18:11:03.000Z</time>
      </trkpt>
      <trkpt lat="44.60401" lon="3.01339">
        <ele>1295.6</ele>
        <time>2000-01-01T18:11:13.000Z</time>
      </trkpt>
      <trkpt lat="44.60394" lon="3.01342">
        <ele>1294.7</ele>
        <time>2000-01-01T18:11:23.000Z</time>
      </trkpt>
      <trkpt lat="44.60389" lon="3.01349">
        <ele>1294.7</ele>
        <time>2000-01-01T18:11:33.000Z</time>
      </trkpt>
      <trkpt lat="44.60385" lon="3.01359">
        <ele>1296</ele>
        <time>2000-01-01T18:11:43.000Z</time>
      </trkpt>
      <trkpt lat="44.60386" lon="3.01376">
        <ele>1296.1</ele>
        <time>2000-01-01T18:11:53.000Z</time>
      </trkpt>
      <trkpt lat="44.60413" lon="3.01405">
        <ele>1298</ele>
        <time>2000-01-01T18:12:03.000Z</time>
      </trkpt>
      <trkpt lat="44.60414" lon="3.01408">
        <ele>1299.8</ele>
        <time>2000-01-01T18:12:13.000Z</time>
      </trkpt>
      <trkpt lat="44.60413" lon="3.01426">
        <ele>1300.1</ele>
        <time>2000-01-01T18:12:23.000Z</time>
      </trkpt>
      <trkpt lat="44.60413" lon="3.01456">
        <ele>1300</ele>
        <time>2000-01-01T18:12:33.000Z</time>
      </trkpt>
      <trkpt lat="44.60409" lon="3.01464">
        <ele>1301.9</ele>
        <time>2000-01-01T18:12:43.000Z</time>
      </trkpt>
      <trkpt lat="44.60399" lon="3.01481">
        <ele>1299</ele>
        <time>2000-01-01T18:12:53.000Z</time>
      </trkpt>
      <trkpt lat="44.60397" lon="3.01486">
        <ele>1301.6</ele>
        <time>2000-01-01T18:13:03.000Z</time>
      </trkpt>
      <trkpt lat="44.6039" lon="3.01495">
        <ele>1301.1</ele>
        <time>2000-01-01T18:13:13.000Z</time>
      </trkpt>
      <trkpt lat="44.60384" lon="3.01505">
        <ele>1299</ele>
        <time>2000-01-01T18:13:23.000Z</time>
      </trkpt>
      <trkpt lat="44.60381" lon="3.01508">
        <ele>1300.5</ele>
        <time>2000-01-01T18:13:33.000Z</time>
      </trkpt>
      <trkpt lat="44.60376" lon="3.01511">
        <ele>1300.2</ele>
        <time>2000-01-01T18:13:43.000Z</time>
      </trkpt>
      <trkpt lat="44.60374" lon="3.01511">
        <ele>1300</ele>
        <time>2000-01-01T18:13:53.000Z</time>
      </trkpt>
      <trkpt lat="44.6037" lon="3.01514">
        <ele>1299.8</ele>
        <time>2000-01-01T18:14:03.000Z</time>
      </trkpt>
      <trkpt lat="44.60361" lon="3.01527">
        <ele>1299</ele>
        <time>2000-01-01T18:14:13.000Z</time>
      </trkpt>
      <trkpt lat="44.60351" lon="3.01545">
        <ele>1300</ele>
        <time>2000-01-01T18:14:23.000Z</time>
      </trkpt>
      <trkpt lat="44.60342" lon="3.01557">
        <ele>1299</ele>
        <time>2000-01-01T18:14:33.000Z</time>
      </trkpt>
      <trkpt lat="44.60329" lon="3.01568">
        <ele>1299.3</ele>
        <time>2000-01-01T18:14:43.000Z</time>
      </trkpt>
      <trkpt lat="44.60321" lon="3.01576">
        <ele>1297</ele>
        <time>2000-01-01T18:14:53.000Z</time>
      </trkpt>
      <trkpt lat="44.60316" lon="3.01584">
        <ele>1298.6</ele>
        <time>2000-01-01T18:15:03.000Z</time>
      </trkpt>
      <trkpt lat="44.60311" lon="3.0159">
        <ele>1298.3</ele>
        <time>2000-01-01T18:15:13.000Z</time>
      </trkpt>
      <trkpt lat="44.60297" lon="3.01616">
        <ele>1296</ele>
        <time>2000-01-01T18:15:23.000Z</time>
      </trkpt>
      <trkpt lat="44.60295" lon="3.01617">
        <ele>1297.7</ele>
        <time>2000-01-01T18:15:33.000Z</time>
      </trkpt>
      <trkpt lat="44.60282" lon="3.01638">
        <ele>1295</ele>
        <time>2000-01-01T18:15:43.000Z</time>
      </trkpt>
      <trkpt lat="44.6028" lon="3.01644">
        <ele>1296.7</ele>
        <time>2000-01-01T18:15:53.000Z</time>
      </trkpt>
      <trkpt lat="44.60275" lon="3.0165">
        <ele>1296.4</ele>
        <time>2000-01-01T18:16:03.000Z</time>
      </trkpt>
      <trkpt lat="44.60267" lon="3.01659">
        <ele>1294</ele>
        <time>2000-01-01T18:16:13.000Z</time>
      </trkpt>
      <trkpt lat="44.60253" lon="3.01672">
        <ele>1295</ele>
        <time>2000-01-01T18:16:23.000Z</time>
      </trkpt>
      <trkpt lat="44.60243" lon="3.01684">
        <ele>1294</ele>
        <time>2000-01-01T18:16:33.000Z</time>
      </trkpt>
      <trkpt lat="44.60219" lon="3.01706">
        <ele>1292</ele>
        <time>2000-01-01T18:16:43.000Z</time>
      </trkpt>
      <trkpt lat="44.60185" lon="3.01739">
        <ele>1291</ele>
        <time>2000-01-01T18:16:53.000Z</time>
      </trkpt>
      <trkpt lat="44.60184" lon="3.01741">
        <ele>1292.5</ele>
        <time>2000-01-01T18:17:03.000Z</time>
      </trkpt>
      <trkpt lat="44.60182" lon="3.01742">
        <ele>1292.3</ele>
        <time>2000-01-01T18:17:13.000Z</time>
      </trkpt>
      <trkpt lat="44.60174" lon="3.01751">
        <ele>1292.2</ele>
        <time>2000-01-01T18:17:23.000Z</time>
      </trkpt>
      <trkpt lat="44.60161" lon="3.01768">
        <ele>1290</ele>
        <time>2000-01-01T18:17:33.000Z</time>
      </trkpt>
      <trkpt lat="44.60149" lon="3.01775">
        <ele>1291.2</ele>
        <time>2000-01-01T18:17:43.000Z</time>
      </trkpt>
      <trkpt lat="44.6014" lon="3.01779">
        <ele>1290</ele>
        <time>2000-01-01T18:17:53.000Z</time>
      </trkpt>
      <trkpt lat="44.60131" lon="3.0179">
        <ele>1290.7</ele>
        <time>2000-01-01T18:18:03.000Z</time>
      </trkpt>
      <trkpt lat="44.60124" lon="3.01805">
        <ele>1290</ele>
        <time>2000-01-01T18:18:13.000Z</time>
      </trkpt>
      <trkpt lat="44.60118" lon="3.01821">
        <ele>1291.5</ele>
        <time>2000-01-01T18:18:23.000Z</time>
      </trkpt>
      <trkpt lat="44.60103" lon="3.01842">
        <ele>1290</ele>
        <time>2000-01-01T18:18:33.000Z</time>
      </trkpt>
      <trkpt lat="44.60099" lon="3.01852">
        <ele>1291.9</ele>
        <time>2000-01-01T18:18:43.000Z</time>
      </trkpt>
      <trkpt lat="44.60092" lon="3.01864">
        <ele>1291</ele>
        <time>2000-01-01T18:18:53.000Z</time>
      </trkpt>
      <trkpt lat="44.60089" lon="3.01874">
        <ele>1292.5</ele>
        <time>2000-01-01T18:19:03.000Z</time>
      </trkpt>
      <trkpt lat="44.60085" lon="3.01882">
        <ele>1292.7</ele>
        <time>2000-01-01T18:19:13.000Z</time>
      </trkpt>
      <trkpt lat="44.6008" lon="3.0189">
        <ele>1292</ele>
        <time>2000-01-01T18:19:23.000Z</time>
      </trkpt>
      <trkpt lat="44.60077" lon="3.01893">
        <ele>1293.3</ele>
        <time>2000-01-01T18:19:33.000Z</time>
      </trkpt>
      <trkpt lat="44.60074" lon="3.01901">
        <ele>1293.7</ele>
        <time>2000-01-01T18:19:43.000Z</time>
      </trkpt>
      <trkpt lat="44.6006" lon="3.01923">
        <ele>1294</ele>
        <time>2000-01-01T18:19:53.000Z</time>
      </trkpt>
      <trkpt lat="44.60053" lon="3.01938">
        <ele>1294.8</ele>
        <time>2000-01-01T18:20:03.000Z</time>
      </trkpt>
      <trkpt lat="44.60039" lon="3.0196">
        <ele>1296</ele>
        <time>2000-01-01T18:20:13.000Z</time>
      </trkpt>
      <trkpt lat="44.60038" lon="3.01963">
        <ele>1296.5</ele>
        <time>2000-01-01T18:20:23.000Z</time>
      </trkpt>
      <trkpt lat="44.60037" lon="3.01987">
        <ele>1297</ele>
        <time>2000-01-01T18:20:33.000Z</time>
      </trkpt>
      <trkpt lat="44.60034" lon="3.01999">
        <ele>1298.2</ele>
        <time>2000-01-01T18:20:43.000Z</time>
      </trkpt>
      <trkpt lat="44.6003" lon="3.0202">
        <ele>1297</ele>
        <time>2000-01-01T18:20:53.000Z</time>
      </trkpt>
      <trkpt lat="44.60025" lon="3.02036">
        <ele>1300</ele>
        <time>2000-01-01T18:21:03.000Z</time>
      </trkpt>
      <trkpt lat="44.60023" lon="3.02053">
        <ele>1300</ele>
        <time>2000-01-01T18:21:13.000Z</time>
      </trkpt>
      <trkpt lat="44.60022" lon="3.02057">
        <ele>1300.6</ele>
        <time>2000-01-01T18:21:23.000Z</time>
      </trkpt>
      <trkpt lat="44.6002" lon="3.02081">
        <ele>1301</ele>
        <time>2000-01-01T18:21:33.000Z</time>
      </trkpt>
      <trkpt lat="44.60016" lon="3.02099">
        <ele>1302.5</ele>
        <time>2000-01-01T18:21:43.000Z</time>
      </trkpt>
      <trkpt lat="44.60017" lon="3.0211">
        <ele>1302</ele>
        <time>2000-01-01T18:21:53.000Z</time>
      </trkpt>
      <trkpt lat="44.60017" lon="3.02157">
        <ele>1304</ele>
        <time>2000-01-01T18:22:03.000Z</time>
      </trkpt>
      <trkpt lat="44.60014" lon="3.02178">
        <ele>1305.5</ele>
        <time>2000-01-01T18:22:13.000Z</time>
      </trkpt>
      <trkpt lat="44.60006" lon="3.0221">
        <ele>1305</ele>
        <time>2000-01-01T18:22:23.000Z</time>
      </trkpt>
      <trkpt lat="44.59995" lon="3.02245">
        <ele>1307</ele>
        <time>2000-01-01T18:22:33.000Z</time>
      </trkpt>
      <trkpt lat="44.59994" lon="3.02253">
        <ele>1308.5</ele>
        <time>2000-01-01T18:22:43.000Z</time>
      </trkpt>
      <trkpt lat="44.59987" lon="3.02278">
        <ele>1311</ele>
        <time>2000-01-01T18:22:53.000Z</time>
      </trkpt>
      <trkpt lat="44.59984" lon="3.02285">
        <ele>1311.7</ele>
        <time>2000-01-01T18:23:03.000Z</time>
      </trkpt>
      <trkpt lat="44.5998" lon="3.023">
        <ele>1313</ele>
        <time>2000-01-01T18:23:13.000Z</time>
      </trkpt>
      <trkpt lat="44.59977" lon="3.02315">
        <ele>1313</ele>
        <time>2000-01-01T18:23:23.000Z</time>
      </trkpt>
      <trkpt lat="44.59972" lon="3.0235">
        <ele>1315</ele>
        <time>2000-01-01T18:23:33.000Z</time>
      </trkpt>
      <trkpt lat="44.59967" lon="3.02396">
        <ele>1315</ele>
        <time>2000-01-01T18:23:43.000Z</time>
      </trkpt>
      <trkpt lat="44.59967" lon="3.02403">
        <ele>1316.5</ele>
        <time>2000-01-01T18:23:53.000Z</time>
      </trkpt>
      <trkpt lat="44.59964" lon="3.02423">
        <ele>1315</ele>
        <time>2000-01-01T18:24:03.000Z</time>
      </trkpt>
      <trkpt lat="44.59964" lon="3.02432">
        <ele>1316.7</ele>
        <time>2000-01-01T18:24:13.000Z</time>
      </trkpt>
      <trkpt lat="44.59962" lon="3.02446">
        <ele>1317.1</ele>
        <time>2000-01-01T18:24:23.000Z</time>
      </trkpt>
      <trkpt lat="44.59962" lon="3.02473">
        <ele>1318</ele>
        <time>2000-01-01T18:24:33.000Z</time>
      </trkpt>
      <trkpt lat="44.59961" lon="3.02486">
        <ele>1319.8</ele>
        <time>2000-01-01T18:24:43.000Z</time>
      </trkpt>
      <trkpt lat="44.59963" lon="3.02499">
        <ele>1320.9</ele>
        <time>2000-01-01T18:24:53.000Z</time>
      </trkpt>
      <trkpt lat="44.59964" lon="3.02516">
        <ele>1322</ele>
        <time>2000-01-01T18:25:03.000Z</time>
      </trkpt>
      <trkpt lat="44.59963" lon="3.02523">
        <ele>1323.5</ele>
        <time>2000-01-01T18:25:13.000Z</time>
      </trkpt>
      <trkpt lat="44.59966" lon="3.02547">
        <ele>1325</ele>
        <time>2000-01-01T18:25:23.000Z</time>
      </trkpt>
      <trkpt lat="44.59966" lon="3.0257">
        <ele>1327.8</ele>
        <time>2000-01-01T18:25:33.000Z</time>
      </trkpt>
      <trkpt lat="44.59973" lon="3.0258">
        <ele>1327</ele>
        <time>2000-01-01T18:25:43.000Z</time>
      </trkpt>
      <trkpt lat="44.59984" lon="3.02587">
        <ele>1329</ele>
        <time>2000-01-01T18:25:53.000Z</time>
      </trkpt>
      <trkpt lat="44.59988" lon="3.02594">
        <ele>1329</ele>
        <time>2000-01-01T18:26:03.000Z</time>
      </trkpt>
      <trkpt lat="44.59989" lon="3.02595">
        <ele>1328</ele>
        <time>2000-01-01T18:26:13.000Z</time>
      </trkpt>
      <trkpt lat="44.59989" lon="3.02594">
        <ele>1329</ele>
        <time>2000-01-01T18:26:23.000Z</time>
      </trkpt>
      <trkpt lat="44.59992" lon="3.02599">
        <ele>1329</ele>
        <time>2000-01-01T18:26:33.000Z</time>
      </trkpt>
      <trkpt lat="44.59995" lon="3.02608">
        <ele>1329</ele>
        <time>2000-01-01T18:26:43.000Z</time>
      </trkpt>
      <trkpt lat="44.59996" lon="3.02621">
        <ele>1328</ele>
        <time>2000-01-01T18:26:53.000Z</time>
      </trkpt>
      <trkpt lat="44.59996" lon="3.0263">
        <ele>1328.2</ele>
        <time>2000-01-01T18:27:03.000Z</time>
      </trkpt>
      <trkpt lat="44.59991" lon="3.02637">
        <ele>1327.8</ele>
        <time>2000-01-01T18:27:13.000Z</time>
      </trkpt>
      <trkpt lat="44.59959" lon="3.02622">
        <ele>1326</ele>
        <time>2000-01-01T18:27:23.000Z</time>
      </trkpt>
      <trkpt lat="44.59952" lon="3.02617">
        <ele>1326.7</ele>
        <time>2000-01-01T18:27:33.000Z</time>
      </trkpt>
      <trkpt lat="44.5995" lon="3.02617">
        <ele>1326.5</ele>
        <time>2000-01-01T18:27:43.000Z</time>
      </trkpt>
      <trkpt lat="44.59948" lon="3.0262">
        <ele>1326.3</ele>
        <time>2000-01-01T18:27:53.000Z</time>
      </trkpt>
      <trkpt lat="44.59938" lon="3.02623">
        <ele>1325</ele>
        <time>2000-01-01T18:28:03.000Z</time>
      </trkpt>
      <trkpt lat="44.59926" lon="3.02628">
        <ele>1325.7</ele>
        <time>2000-01-01T18:28:13.000Z</time>
      </trkpt>
      <trkpt lat="44.59912" lon="3.02629">
        <ele>1325</ele>
        <time>2000-01-01T18:28:23.000Z</time>
      </trkpt>
      <trkpt lat="44.59893" lon="3.02638">
        <ele>1327</ele>
        <time>2000-01-01T18:28:33.000Z</time>
      </trkpt>
      <trkpt lat="44.59886" lon="3.02642">
        <ele>1328.3</ele>
        <time>2000-01-01T18:28:43.000Z</time>
      </trkpt>
      <trkpt lat="44.59876" lon="3.0265">
        <ele>1329.3</ele>
        <time>2000-01-01T18:28:53.000Z</time>
      </trkpt>
      <trkpt lat="44.59868" lon="3.02654">
        <ele>1329</ele>
        <time>2000-01-01T18:29:03.000Z</time>
      </trkpt>
      <trkpt lat="44.5986" lon="3.02657">
        <ele>1330.4</ele>
        <time>2000-01-01T18:29:13.000Z</time>
      </trkpt>
      <trkpt lat="44.59804" lon="3.02695">
        <ele>1333</ele>
        <time>2000-01-01T18:29:23.000Z</time>
      </trkpt>
      <trkpt lat="44.59784" lon="3.02702">
        <ele>1334</ele>
        <time>2000-01-01T18:29:33.000Z</time>
      </trkpt>
      <trkpt lat="44.5977" lon="3.02703">
        <ele>1336.6</ele>
        <time>2000-01-01T18:29:43.000Z</time>
      </trkpt>
      <trkpt lat="44.59751" lon="3.02714">
        <ele>1339</ele>
        <time>2000-01-01T18:29:53.000Z</time>
      </trkpt>
      <trkpt lat="44.59747" lon="3.02714">
        <ele>1340</ele>
        <time>2000-01-01T18:30:03.000Z</time>
      </trkpt>
      <trkpt lat="44.59726" lon="3.02722">
        <ele>1342</ele>
        <time>2000-01-01T18:30:13.000Z</time>
      </trkpt>
      <trkpt lat="44.59723" lon="3.02724">
        <ele>1343.1</ele>
        <time>2000-01-01T18:30:23.000Z</time>
      </trkpt>
      <trkpt lat="44.59716" lon="3.02725">
        <ele>1344.6</ele>
        <time>2000-01-01T18:30:33.000Z</time>
      </trkpt>
      <trkpt lat="44.5971" lon="3.02727">
        <ele>1346.1</ele>
        <time>2000-01-01T18:30:43.000Z</time>
      </trkpt>
      <trkpt lat="44.59707" lon="3.02727">
        <ele>1346</ele>
        <time>2000-01-01T18:30:53.000Z</time>
      </trkpt>
      <trkpt lat="44.59698" lon="3.02733">
        <ele>1349.1</ele>
        <time>2000-01-01T18:31:03.000Z</time>
      </trkpt>
      <trkpt lat="44.59688" lon="3.02733">
        <ele>1350</ele>
        <time>2000-01-01T18:31:13.000Z</time>
      </trkpt>
      <trkpt lat="44.59682" lon="3.02728">
        <ele>1350.6</ele>
        <time>2000-01-01T18:31:23.000Z</time>
      </trkpt>
      <trkpt lat="44.59682" lon="3.02727">
        <ele>1350.5</ele>
        <time>2000-01-01T18:31:33.000Z</time>
      </trkpt>
      <trkpt lat="44.59682" lon="3.02733">
        <ele>1350.8</ele>
        <time>2000-01-01T18:31:43.000Z</time>
      </trkpt>
      <trkpt lat="44.59683" lon="3.02733">
        <ele>1350.7</ele>
        <time>2000-01-01T18:31:53.000Z</time>
      </trkpt>
      <trkpt lat="44.59679" lon="3.02725">
        <ele>1351</ele>
        <time>2000-01-01T18:32:03.000Z</time>
      </trkpt>
      <trkpt lat="44.59668" lon="3.02717">
        <ele>1351.6</ele>
        <time>2000-01-01T18:32:13.000Z</time>
      </trkpt>
      <trkpt lat="44.59664" lon="3.02717">
        <ele>1352.1</ele>
        <time>2000-01-01T18:32:23.000Z</time>
      </trkpt>
      <trkpt lat="44.59661" lon="3.02722">
        <ele>1353</ele>
        <time>2000-01-01T18:32:33.000Z</time>
      </trkpt>
      <trkpt lat="44.59657" lon="3.02724">
        <ele>1353</ele>
        <time>2000-01-01T18:32:43.000Z</time>
      </trkpt>
      <trkpt lat="44.59653" lon="3.02723">
        <ele>1353.5</ele>
        <time>2000-01-01T18:32:53.000Z</time>
      </trkpt>
      <trkpt lat="44.59622" lon="3.02722">
        <ele>1355</ele>
        <time>2000-01-01T18:33:03.000Z</time>
      </trkpt>
      <trkpt lat="44.59605" lon="3.0272">
        <ele>1355.2</ele>
        <time>2000-01-01T18:33:13.000Z</time>
      </trkpt>
      <trkpt lat="44.59591" lon="3.02717">
        <ele>1355</ele>
        <time>2000-01-01T18:33:23.000Z</time>
      </trkpt>
      <trkpt lat="44.59585" lon="3.02717">
        <ele>1355.9</ele>
        <time>2000-01-01T18:33:33.000Z</time>
      </trkpt>
      <trkpt lat="44.59543" lon="3.0271">
        <ele>1355</ele>
        <time>2000-01-01T18:33:43.000Z</time>
      </trkpt>
      <trkpt lat="44.59516" lon="3.02704">
        <ele>1355</ele>
        <time>2000-01-01T18:33:53.000Z</time>
      </trkpt>
      <trkpt lat="44.59492" lon="3.02698">
        <ele>1355</ele>
        <time>2000-01-01T18:34:03.000Z</time>
      </trkpt>
      <trkpt lat="44.59484" lon="3.02693">
        <ele>1355</ele>
        <time>2000-01-01T18:34:13.000Z</time>
      </trkpt>
      <trkpt lat="44.59484" lon="3.02692">
        <ele>1355</ele>
        <time>2000-01-01T18:34:23.000Z</time>
      </trkpt>
      <trkpt lat="44.59482" lon="3.02695">
        <ele>1355</ele>
        <time>2000-01-01T18:34:33.000Z</time>
      </trkpt>
      <trkpt lat="44.59476" lon="3.02694">
        <ele>1355</ele>
        <time>2000-01-01T18:34:43.000Z</time>
      </trkpt>
      <trkpt lat="44.59468" lon="3.02689">
        <ele>1354</ele>
        <time>2000-01-01T18:34:53.000Z</time>
      </trkpt>
      <trkpt lat="44.59431" lon="3.02671">
        <ele>1351</ele>
        <time>2000-01-01T18:35:03.000Z</time>
      </trkpt>
      <trkpt lat="44.59423" lon="3.02668">
        <ele>1351.4</ele>
        <time>2000-01-01T18:35:13.000Z</time>
      </trkpt>
      <trkpt lat="44.59404" lon="3.02664">
        <ele>1351</ele>
        <time>2000-01-01T18:35:23.000Z</time>
      </trkpt>
      <trkpt lat="44.59394" lon="3.02663">
        <ele>1351.1</ele>
        <time>2000-01-01T18:35:33.000Z</time>
      </trkpt>
      <trkpt lat="44.59383" lon="3.02663">
        <ele>1350</ele>
        <time>2000-01-01T18:35:43.000Z</time>
      </trkpt>
      <trkpt lat="44.59368" lon="3.02666">
        <ele>1349.5</ele>
        <time>2000-01-01T18:35:53.000Z</time>
      </trkpt>
      <trkpt lat="44.59348" lon="3.02668">
        <ele>1348</ele>
        <time>2000-01-01T18:36:03.000Z</time>
      </trkpt>
      <trkpt lat="44.59323" lon="3.02667">
        <ele>1347</ele>
        <time>2000-01-01T18:36:13.000Z</time>
      </trkpt>
      <trkpt lat="44.59296" lon="3.02666">
        <ele>1347</ele>
        <time>2000-01-01T18:36:23.000Z</time>
      </trkpt>
      <trkpt lat="44.59276" lon="3.02671">
        <ele>1346</ele>
        <time>2000-01-01T18:36:33.000Z</time>
      </trkpt>
      <trkpt lat="44.59269" lon="3.02675">
        <ele>1345.9</ele>
        <time>2000-01-01T18:36:43.000Z</time>
      </trkpt>
      <trkpt lat="44.59237" lon="3.02698">
        <ele>1344</ele>
        <time>2000-01-01T18:36:53.000Z</time>
      </trkpt>
      <trkpt lat="44.59214" lon="3.02713">
        <ele>1342</ele>
        <time>2000-01-01T18:37:03.000Z</time>
      </trkpt>
      <trkpt lat="44.59188" lon="3.0273">
        <ele>1339</ele>
        <time>2000-01-01T18:37:13.000Z</time>
      </trkpt>
      <trkpt lat="44.59172" lon="3.02743">
        <ele>1336.1</ele>
        <time>2000-01-01T18:37:23.000Z</time>
      </trkpt>
      <trkpt lat="44.59155" lon="3.02758">
        <ele>1333</ele>
        <time>2000-01-01T18:37:33.000Z</time>
      </trkpt>
      <trkpt lat="44.5914" lon="3.02773">
        <ele>1331.4</ele>
        <time>2000-01-01T18:37:43.000Z</time>
      </trkpt>
      <trkpt lat="44.59109" lon="3.02807">
        <ele>1328</ele>
        <time>2000-01-01T18:37:53.000Z</time>
      </trkpt>
      <trkpt lat="44.59097" lon="3.02815">
        <ele>1327.2</ele>
        <time>2000-01-01T18:38:03.000Z</time>
      </trkpt>
      <trkpt lat="44.59076" lon="3.0282">
        <ele>1326</ele>
        <time>2000-01-01T18:38:13.000Z</time>
      </trkpt>
      <trkpt lat="44.59068" lon="3.02819">
        <ele>1326.5</ele>
        <time>2000-01-01T18:38:23.000Z</time>
      </trkpt>
      <trkpt lat="44.5906" lon="3.0282">
        <ele>1326.5</ele>
        <time>2000-01-01T18:38:33.000Z</time>
      </trkpt>
      <trkpt lat="44.59042" lon="3.02825">
        <ele>1326</ele>
        <time>2000-01-01T18:38:43.000Z</time>
      </trkpt>
      <trkpt lat="44.59032" lon="3.02827">
        <ele>1326.4</ele>
        <time>2000-01-01T18:38:53.000Z</time>
      </trkpt>
      <trkpt lat="44.59018" lon="3.02832">
        <ele>1326</ele>
        <time>2000-01-01T18:39:03.000Z</time>
      </trkpt>
      <trkpt lat="44.58994" lon="3.02844">
        <ele>1325</ele>
        <time>2000-01-01T18:39:13.000Z</time>
      </trkpt>
      <trkpt lat="44.58959" lon="3.02864">
        <ele>1325</ele>
        <time>2000-01-01T18:39:23.000Z</time>
      </trkpt>
      <trkpt lat="44.58936" lon="3.02873">
        <ele>1325</ele>
        <time>2000-01-01T18:39:33.000Z</time>
      </trkpt>
      <trkpt lat="44.5891" lon="3.02871">
        <ele>1326</ele>
        <time>2000-01-01T18:39:43.000Z</time>
      </trkpt>
      <trkpt lat="44.58897" lon="3.02875">
        <ele>1326.1</ele>
        <time>2000-01-01T18:39:53.000Z</time>
      </trkpt>
      <trkpt lat="44.58888" lon="3.0288">
        <ele>1326</ele>
        <time>2000-01-01T18:40:03.000Z</time>
      </trkpt>
      <trkpt lat="44.58881" lon="3.02889">
        <ele>1325.7</ele>
        <time>2000-01-01T18:40:13.000Z</time>
      </trkpt>
      <trkpt lat="44.58877" lon="3.0289">
        <ele>1325.5</ele>
        <time>2000-01-01T18:40:23.000Z</time>
      </trkpt>
      <trkpt lat="44.5887" lon="3.02896">
        <ele>1324</ele>
        <time>2000-01-01T18:40:33.000Z</time>
      </trkpt>
      <trkpt lat="44.58853" lon="3.02903">
        <ele>1323.3</ele>
        <time>2000-01-01T18:40:43.000Z</time>
      </trkpt>
      <trkpt lat="44.58843" lon="3.02906">
        <ele>1322</ele>
        <time>2000-01-01T18:40:53.000Z</time>
      </trkpt>
      <trkpt lat="44.58835" lon="3.0291">
        <ele>1320.9</ele>
        <time>2000-01-01T18:41:03.000Z</time>
      </trkpt>
      <trkpt lat="44.58828" lon="3.02915">
        <ele>1319.8</ele>
        <time>2000-01-01T18:41:13.000Z</time>
      </trkpt>
      <trkpt lat="44.58811" lon="3.02931">
        <ele>1317</ele>
        <time>2000-01-01T18:41:23.000Z</time>
      </trkpt>
      <trkpt lat="44.58805" lon="3.02934">
        <ele>1316.1</ele>
        <time>2000-01-01T18:41:33.000Z</time>
      </trkpt>
      <trkpt lat="44.58796" lon="3.02934">
        <ele>1315.4</ele>
        <time>2000-01-01T18:41:43.000Z</time>
      </trkpt>
      <trkpt lat="44.58789" lon="3.02937">
        <ele>1315</ele>
        <time>2000-01-01T18:41:53.000Z</time>
      </trkpt>
      <trkpt lat="44.58782" lon="3.02945">
        <ele>1313.2</ele>
        <time>2000-01-01T18:42:03.000Z</time>
      </trkpt>
      <trkpt lat="44.58777" lon="3.02947">
        <ele>1312.6</ele>
        <time>2000-01-01T18:42:13.000Z</time>
      </trkpt>
      <trkpt lat="44.58774" lon="3.02952">
        <ele>1311.6</ele>
        <time>2000-01-01T18:42:23.000Z</time>
      </trkpt>
      <trkpt lat="44.58765" lon="3.02969">
        <ele>1310</ele>
        <time>2000-01-01T18:42:33.000Z</time>
      </trkpt>
      <trkpt lat="44.58758" lon="3.0299">
        <ele>1305</ele>
        <time>2000-01-01T18:42:43.000Z</time>
      </trkpt>
      <trkpt lat="44.58755" lon="3.02995">
        <ele>1305</ele>
        <time>2000-01-01T18:42:53.000Z</time>
      </trkpt>
      <trkpt lat="44.58747" lon="3.03002">
        <ele>1302.5</ele>
        <time>2000-01-01T18:43:03.000Z</time>
      </trkpt>
      <trkpt lat="44.58743" lon="3.03003">
        <ele>1302.1</ele>
        <time>2000-01-01T18:43:13.000Z</time>
      </trkpt>
      <trkpt lat="44.58735" lon="3.03008">
        <ele>1301</ele>
        <time>2000-01-01T18:43:23.000Z</time>
      </trkpt>
      <trkpt lat="44.58723" lon="3.0301">
        <ele>1299.6</ele>
        <time>2000-01-01T18:43:33.000Z</time>
      </trkpt>
      <trkpt lat="44.58718" lon="3.03009">
        <ele>1299.1</ele>
        <time>2000-01-01T18:43:43.000Z</time>
      </trkpt>
      <trkpt lat="44.58712" lon="3.0301">
        <ele>1299</ele>
        <time>2000-01-01T18:43:53.000Z</time>
      </trkpt>
      <trkpt lat="44.58694" lon="3.03006">
        <ele>1296.1</ele>
        <time>2000-01-01T18:44:03.000Z</time>
      </trkpt>
      <trkpt lat="44.58684" lon="3.03009">
        <ele>1294</ele>
        <time>2000-01-01T18:44:13.000Z</time>
      </trkpt>
      <trkpt lat="44.5867" lon="3.03009">
        <ele>1292.2</ele>
        <time>2000-01-01T18:44:23.000Z</time>
      </trkpt>
      <trkpt lat="44.58655" lon="3.03012">
        <ele>1287</ele>
        <time>2000-01-01T18:44:33.000Z</time>
      </trkpt>
      <trkpt lat="44.58651" lon="3.03014">
        <ele>1287.9</ele>
        <time>2000-01-01T18:44:43.000Z</time>
      </trkpt>
      <trkpt lat="44.58647" lon="3.03015">
        <ele>1287</ele>
        <time>2000-01-01T18:44:53.000Z</time>
      </trkpt>
      <trkpt lat="44.58639" lon="3.03014">
        <ele>1285.5</ele>
        <time>2000-01-01T18:45:03.000Z</time>
      </trkpt>
      <trkpt lat="44.58624" lon="3.03021">
        <ele>1281</ele>
        <time>2000-01-01T18:45:13.000Z</time>
      </trkpt>
      <trkpt lat="44.58622" lon="3.03023">
        <ele>1282.1</ele>
        <time>2000-01-01T18:45:23.000Z</time>
      </trkpt>
      <trkpt lat="44.58618" lon="3.03029">
        <ele>1280.8</ele>
        <time>2000-01-01T18:45:33.000Z</time>
      </trkpt>
      <trkpt lat="44.58611" lon="3.03037">
        <ele>1279</ele>
        <time>2000-01-01T18:45:43.000Z</time>
      </trkpt>
      <trkpt lat="44.58607" lon="3.03043">
        <ele>1277</ele>
        <time>2000-01-01T18:45:53.000Z</time>
      </trkpt>
      <trkpt lat="44.58604" lon="3.03044">
        <ele>1277.5</ele>
        <time>2000-01-01T18:46:03.000Z</time>
      </trkpt>
      <trkpt lat="44.586" lon="3.03044">
        <ele>1277</ele>
        <time>2000-01-01T18:46:13.000Z</time>
      </trkpt>
      <trkpt lat="44.58599" lon="3.03043">
        <ele>1277</ele>
        <time>2000-01-01T18:46:23.000Z</time>
      </trkpt>
      <trkpt lat="44.58599" lon="3.03042">
        <ele>1277.2</ele>
        <time>2000-01-01T18:46:33.000Z</time>
      </trkpt>
      <trkpt lat="44.58593" lon="3.03043">
        <ele>1276.4</ele>
        <time>2000-01-01T18:46:43.000Z</time>
      </trkpt>
      <trkpt lat="44.58589" lon="3.03042">
        <ele>1276.1</ele>
        <time>2000-01-01T18:46:53.000Z</time>
      </trkpt>
      <trkpt lat="44.58575" lon="3.03042">
        <ele>1274</ele>
        <time>2000-01-01T18:47:03.000Z</time>
      </trkpt>
      <trkpt lat="44.58575" lon="3.0304">
        <ele>1274.9</ele>
        <time>2000-01-01T18:47:13.000Z</time>
      </trkpt>
      <trkpt lat="44.5857" lon="3.03039">
        <ele>1274.5</ele>
        <time>2000-01-01T18:47:23.000Z</time>
      </trkpt>
      <trkpt lat="44.5857" lon="3.03037">
        <ele>1274.7</ele>
        <time>2000-01-01T18:47:33.000Z</time>
      </trkpt>
      <trkpt lat="44.58572" lon="3.03038">
        <ele>1274.8</ele>
        <time>2000-01-01T18:47:43.000Z</time>
      </trkpt>
      <trkpt lat="44.58573" lon="3.0304">
        <ele>1274.7</ele>
        <time>2000-01-01T18:47:53.000Z</time>
      </trkpt>
      <trkpt lat="44.58572" lon="3.0304">
        <ele>1274.6</ele>
        <time>2000-01-01T18:48:03.000Z</time>
      </trkpt>
      <trkpt lat="44.5857" lon="3.03046">
        <ele>1273.9</ele>
        <time>2000-01-01T18:48:13.000Z</time>
      </trkpt>
      <trkpt lat="44.58556" lon="3.03044">
        <ele>1273</ele>
        <time>2000-01-01T18:48:23.000Z</time>
      </trkpt>
      <trkpt lat="44.58553" lon="3.03041">
        <ele>1272.9</ele>
        <time>2000-01-01T18:48:33.000Z</time>
      </trkpt>
      <trkpt lat="44.5855" lon="3.03041">
        <ele>1272.7</ele>
        <time>2000-01-01T18:48:43.000Z</time>
      </trkpt>
      <trkpt lat="44.58544" lon="3.03037">
        <ele>1272.6</ele>
        <time>2000-01-01T18:48:53.000Z</time>
      </trkpt>
      <trkpt lat="44.58535" lon="3.03034">
        <ele>1272</ele>
        <time>2000-01-01T18:49:03.000Z</time>
      </trkpt>
      <trkpt lat="44.58523" lon="3.03023">
        <ele>1272</ele>
        <time>2000-01-01T18:49:13.000Z</time>
      </trkpt>
      <trkpt lat="44.58518" lon="3.0302">
        <ele>1271</ele>
        <time>2000-01-01T18:49:23.000Z</time>
      </trkpt>
      <trkpt lat="44.58498" lon="3.03015">
        <ele>1269</ele>
        <time>2000-01-01T18:49:33.000Z</time>
      </trkpt>
      <trkpt lat="44.58454" lon="3.03006">
        <ele>1265</ele>
        <time>2000-01-01T18:49:43.000Z</time>
      </trkpt>
      <trkpt lat="44.58419" lon="3.02995">
        <ele>1262</ele>
        <time>2000-01-01T18:49:53.000Z</time>
      </trkpt>
      <trkpt lat="44.58404" lon="3.02997">
        <ele>1261.7</ele>
        <time>2000-01-01T18:50:03.000Z</time>
      </trkpt>
      <trkpt lat="44.58383" lon="3.0301">
        <ele>1261</ele>
        <time>2000-01-01T18:50:13.000Z</time>
      </trkpt>
      <trkpt lat="44.5837" lon="3.03011">
        <ele>1261</ele>
        <time>2000-01-01T18:50:23.000Z</time>
      </trkpt>
      <trkpt lat="44.58346" lon="3.03005">
        <ele>1259</ele>
        <time>2000-01-01T18:50:33.000Z</time>
      </trkpt>
      <trkpt lat="44.58336" lon="3.03005">
        <ele>1258.6</ele>
        <time>2000-01-01T18:50:43.000Z</time>
      </trkpt>
      <trkpt lat="44.58324" lon="3.03008">
        <ele>1255</ele>
        <time>2000-01-01T18:50:53.000Z</time>
      </trkpt>
      <trkpt lat="44.58314" lon="3.03017">
        <ele>1255.3</ele>
        <time>2000-01-01T18:51:03.000Z</time>
      </trkpt>
      <trkpt lat="44.58302" lon="3.03032">
        <ele>1253</ele>
        <time>2000-01-01T18:51:13.000Z</time>
      </trkpt>
      <trkpt lat="44.58299" lon="3.03038">
        <ele>1252.7</ele>
        <time>2000-01-01T18:51:23.000Z</time>
      </trkpt>
      <trkpt lat="44.58294" lon="3.03051">
        <ele>1251.9</ele>
        <time>2000-01-01T18:51:33.000Z</time>
      </trkpt>
      <trkpt lat="44.58289" lon="3.0307">
        <ele>1248</ele>
        <time>2000-01-01T18:51:43.000Z</time>
      </trkpt>
      <trkpt lat="44.58285" lon="3.0309">
        <ele>1250.3</ele>
        <time>2000-01-01T18:51:53.000Z</time>
      </trkpt>
      <trkpt lat="44.58283" lon="3.03093">
        <ele>1249.9</ele>
        <time>2000-01-01T18:52:03.000Z</time>
      </trkpt>
      <trkpt lat="44.58278" lon="3.03092">
        <ele>1246</ele>
        <time>2000-01-01T18:52:13.000Z</time>
      </trkpt>
      <trkpt lat="44.58277" lon="3.03089">
        <ele>1248</ele>
        <time>2000-01-01T18:52:23.000Z</time>
      </trkpt>
      <trkpt lat="44.58273" lon="3.03063">
        <ele>1246</ele>
        <time>2000-01-01T18:52:33.000Z</time>
      </trkpt>
      <trkpt lat="44.58268" lon="3.03053">
        <ele>1245.5</ele>
        <time>2000-01-01T18:52:43.000Z</time>
      </trkpt>
      <trkpt lat="44.58264" lon="3.03052">
        <ele>1244.5</ele>
        <time>2000-01-01T18:52:53.000Z</time>
      </trkpt>
      <trkpt lat="44.58262" lon="3.03054">
        <ele>1244</ele>
        <time>2000-01-01T18:53:03.000Z</time>
      </trkpt>
      <trkpt lat="44.58259" lon="3.03064">
        <ele>1241</ele>
        <time>2000-01-01T18:53:13.000Z</time>
      </trkpt>
      <trkpt lat="44.58258" lon="3.03078">
        <ele>1243</ele>
        <time>2000-01-01T18:53:23.000Z</time>
      </trkpt>
      <trkpt lat="44.58255" lon="3.03103">
        <ele>1241</ele>
        <time>2000-01-01T18:53:33.000Z</time>
      </trkpt>
      <trkpt lat="44.58248" lon="3.03133">
        <ele>1239</ele>
        <time>2000-01-01T18:53:43.000Z</time>
      </trkpt>
      <trkpt lat="44.58243" lon="3.03144">
        <ele>1239.5</ele>
        <time>2000-01-01T18:53:53.000Z</time>
      </trkpt>
      <trkpt lat="44.58234" lon="3.03167">
        <ele>1236</ele>
        <time>2000-01-01T18:54:03.000Z</time>
      </trkpt>
      <trkpt lat="44.58228" lon="3.03177">
        <ele>1236.6</ele>
        <time>2000-01-01T18:54:13.000Z</time>
      </trkpt>
      <trkpt lat="44.58218" lon="3.03191">
        <ele>1233</ele>
        <time>2000-01-01T18:54:23.000Z</time>
      </trkpt>
      <trkpt lat="44.58208" lon="3.03198">
        <ele>1233.6</ele>
        <time>2000-01-01T18:54:33.000Z</time>
      </trkpt>
      <trkpt lat="44.58194" lon="3.03203">
        <ele>1230</ele>
        <time>2000-01-01T18:54:43.000Z</time>
      </trkpt>
      <trkpt lat="44.58174" lon="3.03206">
        <ele>1228</ele>
        <time>2000-01-01T18:54:53.000Z</time>
      </trkpt>
      <trkpt lat="44.58158" lon="3.03202">
        <ele>1227.9</ele>
        <time>2000-01-01T18:55:03.000Z</time>
      </trkpt>
      <trkpt lat="44.58133" lon="3.03201">
        <ele>1225</ele>
        <time>2000-01-01T18:55:13.000Z</time>
      </trkpt>
      <trkpt lat="44.58126" lon="3.03202">
        <ele>1225.6</ele>
        <time>2000-01-01T18:55:23.000Z</time>
      </trkpt>
      <trkpt lat="44.581" lon="3.03231">
        <ele>1223</ele>
        <time>2000-01-01T18:55:33.000Z</time>
      </trkpt>
      <trkpt lat="44.58084" lon="3.0325">
        <ele>1221</ele>
        <time>2000-01-01T18:55:43.000Z</time>
      </trkpt>
      <trkpt lat="44.58071" lon="3.03277">
        <ele>1219</ele>
        <time>2000-01-01T18:55:53.000Z</time>
      </trkpt>
      <trkpt lat="44.58065" lon="3.03296">
        <ele>1218.8</ele>
        <time>2000-01-01T18:56:03.000Z</time>
      </trkpt>
      <trkpt lat="44.58058" lon="3.03321">
        <ele>1217</ele>
        <time>2000-01-01T18:56:13.000Z</time>
      </trkpt>
      <trkpt lat="44.58046" lon="3.03353">
        <ele>1216</ele>
        <time>2000-01-01T18:56:23.000Z</time>
      </trkpt>
      <trkpt lat="44.58043" lon="3.03357">
        <ele>1217.2</ele>
        <time>2000-01-01T18:56:33.000Z</time>
      </trkpt>
      <trkpt lat="44.58033" lon="3.03359">
        <ele>1216.9</ele>
        <time>2000-01-01T18:56:43.000Z</time>
      </trkpt>
      <trkpt lat="44.58009" lon="3.03342">
        <ele>1211</ele>
        <time>2000-01-01T18:56:53.000Z</time>
      </trkpt>
      <trkpt lat="44.57997" lon="3.03332">
        <ele>1210.6</ele>
        <time>2000-01-01T18:57:03.000Z</time>
      </trkpt>
      <trkpt lat="44.57983" lon="3.03326">
        <ele>1206</ele>
        <time>2000-01-01T18:57:13.000Z</time>
      </trkpt>
      <trkpt lat="44.57964" lon="3.03329">
        <ele>1207.6</ele>
        <time>2000-01-01T18:57:23.000Z</time>
      </trkpt>
      <trkpt lat="44.57943" lon="3.03328">
        <ele>1204</ele>
        <time>2000-01-01T18:57:33.000Z</time>
      </trkpt>
      <trkpt lat="44.57925" lon="3.03331">
        <ele>1205.8</ele>
        <time>2000-01-01T18:57:43.000Z</time>
      </trkpt>
      <trkpt lat="44.57912" lon="3.03329">
        <ele>1203</ele>
        <time>2000-01-01T18:57:53.000Z</time>
      </trkpt>
      <trkpt lat="44.57887" lon="3.03338">
        <ele>1202</ele>
        <time>2000-01-01T18:58:03.000Z</time>
      </trkpt>
      <trkpt lat="44.57877" lon="3.03337">
        <ele>1204.1</ele>
        <time>2000-01-01T18:58:13.000Z</time>
      </trkpt>
      <trkpt lat="44.57842" lon="3.03316">
        <ele>1199</ele>
        <time>2000-01-01T18:58:23.000Z</time>
      </trkpt>
      <trkpt lat="44.57825" lon="3.033">
        <ele>1199</ele>
        <time>2000-01-01T18:58:33.000Z</time>
      </trkpt>
      <trkpt lat="44.57808" lon="3.03286">
        <ele>1199</ele>
        <time>2000-01-01T18:58:43.000Z</time>
      </trkpt>
      <trkpt lat="44.57793" lon="3.03272">
        <ele>1201</ele>
        <time>2000-01-01T18:58:53.000Z</time>
      </trkpt>
      <trkpt lat="44.57766" lon="3.03243">
        <ele>1199</ele>
        <time>2000-01-01T18:59:03.000Z</time>
      </trkpt>
      <trkpt lat="44.57756" lon="3.03235">
        <ele>1197</ele>
        <time>2000-01-01T18:59:13.000Z</time>
      </trkpt>
      <trkpt lat="44.57731" lon="3.03218">
        <ele>1193</ele>
        <time>2000-01-01T18:59:23.000Z</time>
      </trkpt>
      <trkpt lat="44.57727" lon="3.03217">
        <ele>1194.9</ele>
        <time>2000-01-01T18:59:33.000Z</time>
      </trkpt>
      <trkpt lat="44.57721" lon="3.03213">
        <ele>1194.5</ele>
        <time>2000-01-01T18:59:43.000Z</time>
      </trkpt>
      <trkpt lat="44.57708" lon="3.03199">
        <ele>1191</ele>
        <time>2000-01-01T18:59:53.000Z</time>
      </trkpt>
      <trkpt lat="44.57687" lon="3.03164">
        <ele>1189</ele>
        <time>2000-01-01T19:00:03.000Z</time>
      </trkpt>
      <trkpt lat="44.57659" lon="3.0312">
        <ele>1187</ele>
        <time>2000-01-01T19:00:13.000Z</time>
      </trkpt>
      <trkpt lat="44.57649" lon="3.03101">
        <ele>1186.6</ele>
        <time>2000-01-01T19:00:23.000Z</time>
      </trkpt>
      <trkpt lat="44.57639" lon="3.03089">
        <ele>1186</ele>
        <time>2000-01-01T19:00:33.000Z</time>
      </trkpt>
      <trkpt lat="44.57616" lon="3.03073">
        <ele>1185</ele>
        <time>2000-01-01T19:00:43.000Z</time>
      </trkpt>
      <trkpt lat="44.57604" lon="3.03068">
        <ele>1184.3</ele>
        <time>2000-01-01T19:00:53.000Z</time>
      </trkpt>
      <trkpt lat="44.5759" lon="3.03066">
        <ele>1181</ele>
        <time>2000-01-01T19:01:03.000Z</time>
      </trkpt>
      <trkpt lat="44.57567" lon="3.0306">
        <ele>1180</ele>
        <time>2000-01-01T19:01:13.000Z</time>
      </trkpt>
      <trkpt lat="44.57555" lon="3.0306">
        <ele>1180.7</ele>
        <time>2000-01-01T19:01:23.000Z</time>
      </trkpt>
      <trkpt lat="44.57543" lon="3.03055">
        <ele>1179</ele>
        <time>2000-01-01T19:01:33.000Z</time>
      </trkpt>
      <trkpt lat="44.57526" lon="3.03041">
        <ele>1179</ele>
        <time>2000-01-01T19:01:43.000Z</time>
      </trkpt>
      <trkpt lat="44.57507" lon="3.03031">
        <ele>1179</ele>
        <time>2000-01-01T19:01:53.000Z</time>
      </trkpt>
      <trkpt lat="44.57493" lon="3.03016">
        <ele>1176.8</ele>
        <time>2000-01-01T19:02:03.000Z</time>
      </trkpt>
      <trkpt lat="44.57459" lon="3.02991">
        <ele>1174</ele>
        <time>2000-01-01T19:02:13.000Z</time>
      </trkpt>
      <trkpt lat="44.57434" lon="3.02972">
        <ele>1171</ele>
        <time>2000-01-01T19:02:23.000Z</time>
      </trkpt>
      <trkpt lat="44.57399" lon="3.02945">
        <ele>1170</ele>
        <time>2000-01-01T19:02:33.000Z</time>
      </trkpt>
      <trkpt lat="44.57379" lon="3.02922">
        <ele>1169</ele>
        <time>2000-01-01T19:02:43.000Z</time>
      </trkpt>
      <trkpt lat="44.57372" lon="3.0291">
        <ele>1168</ele>
        <time>2000-01-01T19:02:53.000Z</time>
      </trkpt>
      <trkpt lat="44.57358" lon="3.02881">
        <ele>1163</ele>
        <time>2000-01-01T19:03:03.000Z</time>
      </trkpt>
      <trkpt lat="44.57349" lon="3.02867">
        <ele>1162.7</ele>
        <time>2000-01-01T19:03:13.000Z</time>
      </trkpt>
      <trkpt lat="44.57352" lon="3.02861">
        <ele>1161.6</ele>
        <time>2000-01-01T19:03:23.000Z</time>
      </trkpt>
      <trkpt lat="44.57353" lon="3.02857">
        <ele>1159</ele>
        <time>2000-01-01T19:03:33.000Z</time>
      </trkpt>
      <trkpt lat="44.57355" lon="3.02858">
        <ele>1161.1</ele>
        <time>2000-01-01T19:03:43.000Z</time>
      </trkpt>
      <trkpt lat="44.57356" lon="3.02857">
        <ele>1160.9</ele>
        <time>2000-01-01T19:03:53.000Z</time>
      </trkpt>
      <trkpt lat="44.57346" lon="3.02849">
        <ele>1160.5</ele>
        <time>2000-01-01T19:04:03.000Z</time>
      </trkpt>
      <trkpt lat="44.57327" lon="3.02808">
        <ele>1158</ele>
        <time>2000-01-01T19:04:13.000Z</time>
      </trkpt>
      <trkpt lat="44.5732" lon="3.0279">
        <ele>1158.5</ele>
        <time>2000-01-01T19:04:23.000Z</time>
      </trkpt>
      <trkpt lat="44.57314" lon="3.02772">
        <ele>1157</ele>
        <time>2000-01-01T19:04:33.000Z</time>
      </trkpt>
      <trkpt lat="44.57304" lon="3.02739">
        <ele>1156</ele>
        <time>2000-01-01T19:04:43.000Z</time>
      </trkpt>
      <trkpt lat="44.57296" lon="3.02717">
        <ele>1155.8</ele>
        <time>2000-01-01T19:04:53.000Z</time>
      </trkpt>
      <trkpt lat="44.5729" lon="3.02707">
        <ele>1156</ele>
        <time>2000-01-01T19:05:03.000Z</time>
      </trkpt>
      <trkpt lat="44.57286" lon="3.02697">
        <ele>1156.2</ele>
        <time>2000-01-01T19:05:13.000Z</time>
      </trkpt>
      <trkpt lat="44.57282" lon="3.02682">
        <ele>1155</ele>
        <time>2000-01-01T19:05:23.000Z</time>
      </trkpt>
      <trkpt lat="44.57274" lon="3.02656">
        <ele>1155</ele>
        <time>2000-01-01T19:05:33.000Z</time>
      </trkpt>
      <trkpt lat="44.57256" lon="3.02613">
        <ele>1155</ele>
        <time>2000-01-01T19:05:43.000Z</time>
      </trkpt>
      <trkpt lat="44.57251" lon="3.02604">
        <ele>1154.3</ele>
        <time>2000-01-01T19:05:53.000Z</time>
      </trkpt>
      <trkpt lat="44.57244" lon="3.02575">
        <ele>1154</ele>
        <time>2000-01-01T19:06:03.000Z</time>
      </trkpt>
      <trkpt lat="44.57221" lon="3.02532">
        <ele>1154</ele>
        <time>2000-01-01T19:06:13.000Z</time>
      </trkpt>
      <trkpt lat="44.572" lon="3.02498">
        <ele>1154</ele>
        <time>2000-01-01T19:06:23.000Z</time>
      </trkpt>
      <trkpt lat="44.57171" lon="3.02458">
        <ele>1153</ele>
        <time>2000-01-01T19:06:33.000Z</time>
      </trkpt>
      <trkpt lat="44.57171" lon="3.0246">
        <ele>1152.3</ele>
        <time>2000-01-01T19:06:43.000Z</time>
      </trkpt>
      <trkpt lat="44.57162" lon="3.02451">
        <ele>1153</ele>
        <time>2000-01-01T19:06:53.000Z</time>
      </trkpt>
      <trkpt lat="44.57161" lon="3.02449">
        <ele>1152.9</ele>
        <time>2000-01-01T19:07:03.000Z</time>
      </trkpt>
      <trkpt lat="44.57155" lon="3.02442">
        <ele>1153</ele>
        <time>2000-01-01T19:07:13.000Z</time>
      </trkpt>
      <trkpt lat="44.57151" lon="3.02439">
        <ele>1153.5</ele>
        <time>2000-01-01T19:07:23.000Z</time>
      </trkpt>
      <trkpt lat="44.5714" lon="3.02423">
        <ele>1155</ele>
        <time>2000-01-01T19:07:33.000Z</time>
      </trkpt>
      <trkpt lat="44.5711" lon="3.02385">
        <ele>1155</ele>
        <time>2000-01-01T19:07:43.000Z</time>
      </trkpt>
      <trkpt lat="44.57089" lon="3.02362">
        <ele>1153</ele>
        <time>2000-01-01T19:07:53.000Z</time>
      </trkpt>
      <trkpt lat="44.5708" lon="3.02353">
        <ele>1154.4</ele>
        <time>2000-01-01T19:08:03.000Z</time>
      </trkpt>
      <trkpt lat="44.57046" lon="3.02326">
        <ele>1152</ele>
        <time>2000-01-01T19:08:13.000Z</time>
      </trkpt>
      <trkpt lat="44.5703" lon="3.02318">
        <ele>1154.3</ele>
        <time>2000-01-01T19:08:23.000Z</time>
      </trkpt>
      <trkpt lat="44.57019" lon="3.0231">
        <ele>1150</ele>
        <time>2000-01-01T19:08:33.000Z</time>
      </trkpt>
    </trkseg>
  </trk>
</gpx>